<?xml version="1.0" encoding="UTF-8" standalone="no" ?>
<gpx xmlns="http://www.topografix.com/GPX/1/1" xmlns:xsi="http://www.w3.org/2001/XMLSchema-instance" xsi:schemaLocation="http://www.topografix.com/GPX/1/1 http://www.topografix.com/GPX/1/1/gpx.xsd" version="1.1" creator="VisuGPX - https://www.visugpx.com">
  <metadata>
    <name>HRE J1 St Véran - La Blanche par col Longet</name>
    <desc><![CDATA[comment ...]]></desc>
  </metadata>
  <trk>
    <name><![CDATA[Tracé 20211219-103349]]></name>
    <desc><![CDATA[comment ...]]></desc>
    <extensions>
      <line xmlns="http://www.topografix.com/GPX/gpx_style/0/2">
        <color>0000FF</color>
        <width>4</width>
      </line>
    </extensions>
    <trkseg>
      <trkpt lat="44.70369" lon="6.8655">
        <ele>2076.3</ele>
        <time>2021-12-19T09:33:49Z</time>
      </trkpt>
      <trkpt lat="44.70369" lon="6.8655">
        <ele>2076.3</ele>
        <time>2021-12-19T09:33:49Z</time>
      </trkpt>
      <trkpt lat="44.70369" lon="6.8655">
        <ele>2076.3</ele>
        <time>2021-12-19T09:33:49Z</time>
      </trkpt>
      <trkpt lat="44.70375" lon="6.86543">
        <ele>2076.2</ele>
        <time>2021-12-19T09:34:12Z</time>
      </trkpt>
      <trkpt lat="44.70385" lon="6.86543">
        <ele>2077.6</ele>
        <time>2021-12-19T09:34:25Z</time>
      </trkpt>
      <trkpt lat="44.70392" lon="6.86553">
        <ele>2079.9</ele>
        <time>2021-12-19T09:34:43Z</time>
      </trkpt>
      <trkpt lat="44.70407" lon="6.86557">
        <ele>2081.6</ele>
        <time>2021-12-19T09:35:00Z</time>
      </trkpt>
      <trkpt lat="44.70437" lon="6.86551">
        <ele>2085.5</ele>
        <time>2021-12-19T09:35:28Z</time>
      </trkpt>
      <trkpt lat="44.70442" lon="6.86545">
        <ele>2086.1</ele>
        <time>2021-12-19T09:35:35Z</time>
      </trkpt>
      <trkpt lat="44.70452" lon="6.86542">
        <ele>2089</ele>
        <time>2021-12-19T09:35:43Z</time>
      </trkpt>
      <trkpt lat="44.70461" lon="6.86505">
        <ele>2089.5</ele>
        <time>2021-12-19T09:36:12Z</time>
      </trkpt>
      <trkpt lat="44.70477" lon="6.86492">
        <ele>2092.9</ele>
        <time>2021-12-19T09:36:33Z</time>
      </trkpt>
      <trkpt lat="44.70482" lon="6.86484">
        <ele>2093.7</ele>
        <time>2021-12-19T09:36:47Z</time>
      </trkpt>
      <trkpt lat="44.70491" lon="6.86476">
        <ele>2095.3</ele>
        <time>2021-12-19T09:37:01Z</time>
      </trkpt>
      <trkpt lat="44.70497" lon="6.86468">
        <ele>2096</ele>
        <time>2021-12-19T09:37:10Z</time>
      </trkpt>
      <trkpt lat="44.70516" lon="6.86454">
        <ele>2099.7</ele>
        <time>2021-12-19T09:37:49Z</time>
      </trkpt>
      <trkpt lat="44.70541" lon="6.86438">
        <ele>2104.2</ele>
        <time>2021-12-19T09:38:20Z</time>
      </trkpt>
      <trkpt lat="44.70558" lon="6.86426">
        <ele>2105.8</ele>
        <time>2021-12-19T09:38:35Z</time>
      </trkpt>
      <trkpt lat="44.70564" lon="6.86413">
        <ele>2105.4</ele>
        <time>2021-12-19T09:38:46Z</time>
      </trkpt>
      <trkpt lat="44.70574" lon="6.86415">
        <ele>2106.2</ele>
        <time>2021-12-19T09:39:32Z</time>
      </trkpt>
      <trkpt lat="44.70603" lon="6.86386">
        <ele>2107.5</ele>
        <time>2021-12-19T09:39:50Z</time>
      </trkpt>
      <trkpt lat="44.70603" lon="6.86374">
        <ele>2106.2</ele>
        <time>2021-12-19T09:40:11Z</time>
      </trkpt>
      <trkpt lat="44.70606" lon="6.86361">
        <ele>2105.3</ele>
        <time>2021-12-19T09:40:24Z</time>
      </trkpt>
      <trkpt lat="44.70615" lon="6.86353">
        <ele>2105.7</ele>
        <time>2021-12-19T09:40:37Z</time>
      </trkpt>
      <trkpt lat="44.70664" lon="6.86326">
        <ele>2103.8</ele>
        <time>2021-12-19T09:41:02Z</time>
      </trkpt>
      <trkpt lat="44.70685" lon="6.86312">
        <ele>2099.7</ele>
        <time>2021-12-19T09:41:19Z</time>
      </trkpt>
      <trkpt lat="44.70694" lon="6.86307">
        <ele>2098.2</ele>
        <time>2021-12-19T09:41:23Z</time>
      </trkpt>
      <trkpt lat="44.70705" lon="6.86303">
        <ele>2097.6</ele>
        <time>2021-12-19T09:41:27Z</time>
      </trkpt>
      <trkpt lat="44.70714" lon="6.86303">
        <ele>2097.6</ele>
        <time>2021-12-19T09:41:33Z</time>
      </trkpt>
      <trkpt lat="44.70728" lon="6.86319">
        <ele>2100.8</ele>
        <time>2021-12-19T09:41:49Z</time>
      </trkpt>
      <trkpt lat="44.70736" lon="6.86321">
        <ele>2101.9</ele>
        <time>2021-12-19T09:41:52Z</time>
      </trkpt>
      <trkpt lat="44.70753" lon="6.86317">
        <ele>2102.1</ele>
        <time>2021-12-19T09:42:01Z</time>
      </trkpt>
      <trkpt lat="44.70778" lon="6.86289">
        <ele>2098.5</ele>
        <time>2021-12-19T09:42:23Z</time>
      </trkpt>
      <trkpt lat="44.70813" lon="6.86258">
        <ele>2097.8</ele>
        <time>2021-12-19T09:42:53Z</time>
      </trkpt>
      <trkpt lat="44.7084" lon="6.86233">
        <ele>2094</ele>
        <time>2021-12-19T09:43:15Z</time>
      </trkpt>
      <trkpt lat="44.70847" lon="6.8623">
        <ele>2094.1</ele>
        <time>2021-12-19T09:43:30Z</time>
      </trkpt>
      <trkpt lat="44.70869" lon="6.86214">
        <ele>2093.1</ele>
        <time>2021-12-19T09:43:53Z</time>
      </trkpt>
      <trkpt lat="44.70908" lon="6.86198">
        <ele>2094.6</ele>
        <time>2021-12-19T09:44:23Z</time>
      </trkpt>
      <trkpt lat="44.70917" lon="6.86194">
        <ele>2094.9</ele>
        <time>2021-12-19T09:44:29Z</time>
      </trkpt>
      <trkpt lat="44.70933" lon="6.8619">
        <ele>2093.5</ele>
        <time>2021-12-19T09:44:45Z</time>
      </trkpt>
      <trkpt lat="44.7094" lon="6.86192">
        <ele>2093.7</ele>
        <time>2021-12-19T09:44:59Z</time>
      </trkpt>
      <trkpt lat="44.70951" lon="6.86187">
        <ele>2093</ele>
        <time>2021-12-19T09:45:09Z</time>
      </trkpt>
      <trkpt lat="44.70962" lon="6.86172">
        <ele>2091.6</ele>
        <time>2021-12-19T09:45:32Z</time>
      </trkpt>
      <trkpt lat="44.70969" lon="6.8617">
        <ele>2092</ele>
        <time>2021-12-19T09:45:36Z</time>
      </trkpt>
      <trkpt lat="44.70981" lon="6.86154">
        <ele>2092.7</ele>
        <time>2021-12-19T09:46:20Z</time>
      </trkpt>
      <trkpt lat="44.70989" lon="6.86152">
        <ele>2093.6</ele>
        <time>2021-12-19T09:46:28Z</time>
      </trkpt>
      <trkpt lat="44.70996" lon="6.86147">
        <ele>2094.1</ele>
        <time>2021-12-19T09:46:34Z</time>
      </trkpt>
      <trkpt lat="44.71071" lon="6.86131">
        <ele>2096.1</ele>
        <time>2021-12-19T09:47:02Z</time>
      </trkpt>
      <trkpt lat="44.71081" lon="6.86129">
        <ele>2094.5</ele>
        <time>2021-12-19T09:47:08Z</time>
      </trkpt>
      <trkpt lat="44.71098" lon="6.86121">
        <ele>2092.2</ele>
        <time>2021-12-19T09:47:22Z</time>
      </trkpt>
      <trkpt lat="44.71113" lon="6.86122">
        <ele>2091.9</ele>
        <time>2021-12-19T09:47:33Z</time>
      </trkpt>
      <trkpt lat="44.71124" lon="6.86106">
        <ele>2091.4</ele>
        <time>2021-12-19T09:47:56Z</time>
      </trkpt>
      <trkpt lat="44.71132" lon="6.86105">
        <ele>2091.8</ele>
        <time>2021-12-19T09:48:04Z</time>
      </trkpt>
      <trkpt lat="44.71139" lon="6.86108">
        <ele>2092.7</ele>
        <time>2021-12-19T09:48:11Z</time>
      </trkpt>
      <trkpt lat="44.71143" lon="6.86118">
        <ele>2093.4</ele>
        <time>2021-12-19T09:48:22Z</time>
      </trkpt>
      <trkpt lat="44.71164" lon="6.86135">
        <ele>2096.4</ele>
        <time>2021-12-19T09:49:48Z</time>
      </trkpt>
      <trkpt lat="44.7119" lon="6.86146">
        <ele>2098.6</ele>
        <time>2021-12-19T09:50:08Z</time>
      </trkpt>
      <trkpt lat="44.71212" lon="6.86146">
        <ele>2098.9</ele>
        <time>2021-12-19T09:50:21Z</time>
      </trkpt>
      <trkpt lat="44.71237" lon="6.8613">
        <ele>2096.5</ele>
        <time>2021-12-19T09:50:39Z</time>
      </trkpt>
      <trkpt lat="44.71271" lon="6.86137">
        <ele>2096.1</ele>
        <time>2021-12-19T09:50:57Z</time>
      </trkpt>
      <trkpt lat="44.71279" lon="6.86133">
        <ele>2094.6</ele>
        <time>2021-12-19T09:51:15Z</time>
      </trkpt>
      <trkpt lat="44.71291" lon="6.86134">
        <ele>2094</ele>
        <time>2021-12-19T09:51:19Z</time>
      </trkpt>
      <trkpt lat="44.71298" lon="6.86127">
        <ele>2092</ele>
        <time>2021-12-19T09:51:22Z</time>
      </trkpt>
      <trkpt lat="44.71313" lon="6.8612">
        <ele>2088.9</ele>
        <time>2021-12-19T09:51:27Z</time>
      </trkpt>
      <trkpt lat="44.71327" lon="6.86109">
        <ele>2084.4</ele>
        <time>2021-12-19T09:51:31Z</time>
      </trkpt>
      <trkpt lat="44.7134" lon="6.86106">
        <ele>2081.9</ele>
        <time>2021-12-19T09:51:35Z</time>
      </trkpt>
      <trkpt lat="44.71352" lon="6.86106">
        <ele>2080.6</ele>
        <time>2021-12-19T09:51:39Z</time>
      </trkpt>
      <trkpt lat="44.71364" lon="6.86113">
        <ele>2080.9</ele>
        <time>2021-12-19T09:51:51Z</time>
      </trkpt>
      <trkpt lat="44.71372" lon="6.86114">
        <ele>2079.7</ele>
        <time>2021-12-19T09:52:09Z</time>
      </trkpt>
      <trkpt lat="44.71378" lon="6.86119">
        <ele>2080</ele>
        <time>2021-12-19T09:52:14Z</time>
      </trkpt>
      <trkpt lat="44.71397" lon="6.86112">
        <ele>2075.1</ele>
        <time>2021-12-19T09:52:22Z</time>
      </trkpt>
      <trkpt lat="44.71404" lon="6.86115">
        <ele>2074.9</ele>
        <time>2021-12-19T09:52:24Z</time>
      </trkpt>
      <trkpt lat="44.71413" lon="6.86123">
        <ele>2076</ele>
        <time>2021-12-19T09:52:28Z</time>
      </trkpt>
      <trkpt lat="44.71421" lon="6.86117">
        <ele>2073.1</ele>
        <time>2021-12-19T09:52:35Z</time>
      </trkpt>
      <trkpt lat="44.71429" lon="6.86109">
        <ele>2069.7</ele>
        <time>2021-12-19T09:52:39Z</time>
      </trkpt>
      <trkpt lat="44.7144" lon="6.8611">
        <ele>2068.4</ele>
        <time>2021-12-19T09:52:42Z</time>
      </trkpt>
      <trkpt lat="44.7145" lon="6.86112">
        <ele>2068.1</ele>
        <time>2021-12-19T09:52:44Z</time>
      </trkpt>
      <trkpt lat="44.7146" lon="6.86082">
        <ele>2060.7</ele>
        <time>2021-12-19T09:52:53Z</time>
      </trkpt>
      <trkpt lat="44.71472" lon="6.86085">
        <ele>2060.4</ele>
        <time>2021-12-19T09:52:58Z</time>
      </trkpt>
      <trkpt lat="44.71484" lon="6.8609">
        <ele>2061.3</ele>
        <time>2021-12-19T09:53:01Z</time>
      </trkpt>
      <trkpt lat="44.71494" lon="6.8609">
        <ele>2060.9</ele>
        <time>2021-12-19T09:53:05Z</time>
      </trkpt>
      <trkpt lat="44.71506" lon="6.86089">
        <ele>2060.2</ele>
        <time>2021-12-19T09:53:12Z</time>
      </trkpt>
      <trkpt lat="44.71517" lon="6.86095">
        <ele>2061.3</ele>
        <time>2021-12-19T09:53:16Z</time>
      </trkpt>
      <trkpt lat="44.71525" lon="6.86087">
        <ele>2059</ele>
        <time>2021-12-19T09:53:21Z</time>
      </trkpt>
      <trkpt lat="44.71532" lon="6.86079">
        <ele>2056.6</ele>
        <time>2021-12-19T09:53:25Z</time>
      </trkpt>
      <trkpt lat="44.71545" lon="6.86077">
        <ele>2055.7</ele>
        <time>2021-12-19T09:53:29Z</time>
      </trkpt>
      <trkpt lat="44.71553" lon="6.8607">
        <ele>2053.7</ele>
        <time>2021-12-19T09:53:33Z</time>
      </trkpt>
      <trkpt lat="44.71565" lon="6.8607">
        <ele>2053.5</ele>
        <time>2021-12-19T09:53:36Z</time>
      </trkpt>
      <trkpt lat="44.71577" lon="6.86063">
        <ele>2051.3</ele>
        <time>2021-12-19T09:53:43Z</time>
      </trkpt>
      <trkpt lat="44.71583" lon="6.86049">
        <ele>2047.1</ele>
        <time>2021-12-19T09:53:50Z</time>
      </trkpt>
      <trkpt lat="44.71615" lon="6.86046">
        <ele>2043.7</ele>
        <time>2021-12-19T09:53:57Z</time>
      </trkpt>
      <trkpt lat="44.71605" lon="6.86032">
        <ele>2040</ele>
        <time>2021-12-19T09:54:10Z</time>
      </trkpt>
      <trkpt lat="44.71604" lon="6.86017">
        <ele>2035.7</ele>
        <time>2021-12-19T09:54:35Z</time>
      </trkpt>
      <trkpt lat="44.71606" lon="6.86005">
        <ele>2032</ele>
        <time>2021-12-19T09:54:46Z</time>
      </trkpt>
      <trkpt lat="44.71605" lon="6.85995">
        <ele>2029.3</ele>
        <time>2021-12-19T09:54:49Z</time>
      </trkpt>
      <trkpt lat="44.71594" lon="6.85965">
        <ele>2022.7</ele>
        <time>2021-12-19T09:54:56Z</time>
      </trkpt>
      <trkpt lat="44.71605" lon="6.85954">
        <ele>2017.9</ele>
        <time>2021-12-19T09:55:02Z</time>
      </trkpt>
      <trkpt lat="44.71611" lon="6.85943">
        <ele>2013.7</ele>
        <time>2021-12-19T09:55:07Z</time>
      </trkpt>
      <trkpt lat="44.71609" lon="6.85933">
        <ele>2011.5</ele>
        <time>2021-12-19T09:55:09Z</time>
      </trkpt>
      <trkpt lat="44.71613" lon="6.8592">
        <ele>2007.4</ele>
        <time>2021-12-19T09:55:12Z</time>
      </trkpt>
      <trkpt lat="44.71604" lon="6.85875">
        <ele>1996</ele>
        <time>2021-12-19T09:55:46Z</time>
      </trkpt>
      <trkpt lat="44.71597" lon="6.85871">
        <ele>1995.9</ele>
        <time>2021-12-19T09:56:03Z</time>
      </trkpt>
      <trkpt lat="44.71598" lon="6.8586">
        <ele>1992.6</ele>
        <time>2021-12-19T09:56:42Z</time>
      </trkpt>
      <trkpt lat="44.71613" lon="6.85845">
        <ele>1986.8</ele>
        <time>2021-12-19T09:56:48Z</time>
      </trkpt>
      <trkpt lat="44.71633" lon="6.85837">
        <ele>1983.9</ele>
        <time>2021-12-19T09:56:54Z</time>
      </trkpt>
      <trkpt lat="44.71653" lon="6.85833">
        <ele>1981.9</ele>
        <time>2021-12-19T09:57:02Z</time>
      </trkpt>
      <trkpt lat="44.71674" lon="6.85842">
        <ele>1980.8</ele>
        <time>2021-12-19T09:57:18Z</time>
      </trkpt>
      <trkpt lat="44.71682" lon="6.85853">
        <ele>1981.3</ele>
        <time>2021-12-19T09:57:21Z</time>
      </trkpt>
      <trkpt lat="44.7168" lon="6.85865">
        <ele>1983.8</ele>
        <time>2021-12-19T09:57:25Z</time>
      </trkpt>
      <trkpt lat="44.71689" lon="6.85866">
        <ele>1982.7</ele>
        <time>2021-12-19T09:57:31Z</time>
      </trkpt>
      <trkpt lat="44.717" lon="6.85861">
        <ele>1980.2</ele>
        <time>2021-12-19T09:57:35Z</time>
      </trkpt>
      <trkpt lat="44.7174" lon="6.85857">
        <ele>1974.2</ele>
        <time>2021-12-19T09:57:47Z</time>
      </trkpt>
      <trkpt lat="44.71749" lon="6.85862">
        <ele>1974.3</ele>
        <time>2021-12-19T09:57:49Z</time>
      </trkpt>
      <trkpt lat="44.71766" lon="6.85854">
        <ele>1971.3</ele>
        <time>2021-12-19T09:57:53Z</time>
      </trkpt>
      <trkpt lat="44.71779" lon="6.8585">
        <ele>1969.5</ele>
        <time>2021-12-19T09:57:57Z</time>
      </trkpt>
      <trkpt lat="44.71791" lon="6.85852">
        <ele>1969.1</ele>
        <time>2021-12-19T09:58:01Z</time>
      </trkpt>
      <trkpt lat="44.71816" lon="6.85859">
        <ele>1969.1</ele>
        <time>2021-12-19T09:58:07Z</time>
      </trkpt>
      <trkpt lat="44.71845" lon="6.8585">
        <ele>1965.6</ele>
        <time>2021-12-19T09:58:14Z</time>
      </trkpt>
      <trkpt lat="44.7186" lon="6.8584">
        <ele>1962</ele>
        <time>2021-12-19T09:58:22Z</time>
      </trkpt>
      <trkpt lat="44.71858" lon="6.85827">
        <ele>1958.7</ele>
        <time>2021-12-19T09:58:31Z</time>
      </trkpt>
      <trkpt lat="44.7185" lon="6.85824">
        <ele>1958.6</ele>
        <time>2021-12-19T09:58:34Z</time>
      </trkpt>
      <trkpt lat="44.71844" lon="6.85816">
        <ele>1957.2</ele>
        <time>2021-12-19T09:58:37Z</time>
      </trkpt>
      <trkpt lat="44.7185" lon="6.85805">
        <ele>1954.1</ele>
        <time>2021-12-19T09:58:42Z</time>
      </trkpt>
      <trkpt lat="44.71877" lon="6.85828">
        <ele>1957.5</ele>
        <time>2021-12-19T09:59:05Z</time>
      </trkpt>
      <trkpt lat="44.7189" lon="6.85831">
        <ele>1957.2</ele>
        <time>2021-12-19T09:59:09Z</time>
      </trkpt>
      <trkpt lat="44.71901" lon="6.85831">
        <ele>1955.3</ele>
        <time>2021-12-19T09:59:15Z</time>
      </trkpt>
      <trkpt lat="44.71912" lon="6.85827">
        <ele>1952.4</ele>
        <time>2021-12-19T09:59:20Z</time>
      </trkpt>
      <trkpt lat="44.71931" lon="6.85849">
        <ele>1953.3</ele>
        <time>2021-12-19T09:59:41Z</time>
      </trkpt>
      <trkpt lat="44.72059" lon="6.85978">
        <ele>1938.7</ele>
        <time>2021-12-19T10:00:20Z</time>
      </trkpt>
      <trkpt lat="44.72069" lon="6.85978">
        <ele>1935.5</ele>
        <time>2021-12-19T10:00:30Z</time>
      </trkpt>
      <trkpt lat="44.7208" lon="6.85994">
        <ele>1934.2</ele>
        <time>2021-12-19T10:00:55Z</time>
      </trkpt>
      <trkpt lat="44.72086" lon="6.86008">
        <ele>1934.9</ele>
        <time>2021-12-19T10:01:15Z</time>
      </trkpt>
      <trkpt lat="44.72092" lon="6.86039">
        <ele>1939.1</ele>
        <time>2021-12-19T10:01:47Z</time>
      </trkpt>
      <trkpt lat="44.72092" lon="6.86059">
        <ele>1942.7</ele>
        <time>2021-12-19T10:02:00Z</time>
      </trkpt>
      <trkpt lat="44.72103" lon="6.86069">
        <ele>1941.8</ele>
        <time>2021-12-19T10:02:08Z</time>
      </trkpt>
      <trkpt lat="44.72114" lon="6.8608">
        <ele>1941</ele>
        <time>2021-12-19T10:02:18Z</time>
      </trkpt>
      <trkpt lat="44.72131" lon="6.86108">
        <ele>1942</ele>
        <time>2021-12-19T10:02:49Z</time>
      </trkpt>
      <trkpt lat="44.72137" lon="6.8612">
        <ele>1942</ele>
        <time>2021-12-19T10:03:02Z</time>
      </trkpt>
      <trkpt lat="44.7214" lon="6.86132">
        <ele>1942.3</ele>
        <time>2021-12-19T10:03:11Z</time>
      </trkpt>
      <trkpt lat="44.72144" lon="6.86141">
        <ele>1942.2</ele>
        <time>2021-12-19T10:03:15Z</time>
      </trkpt>
      <trkpt lat="44.72146" lon="6.86151">
        <ele>1942.5</ele>
        <time>2021-12-19T10:03:21Z</time>
      </trkpt>
      <trkpt lat="44.72168" lon="6.86213">
        <ele>1942</ele>
        <time>2021-12-19T10:03:57Z</time>
      </trkpt>
      <trkpt lat="44.72177" lon="6.86253">
        <ele>1941.2</ele>
        <time>2021-12-19T10:04:15Z</time>
      </trkpt>
      <trkpt lat="44.7218" lon="6.8627">
        <ele>1940.9</ele>
        <time>2021-12-19T10:04:26Z</time>
      </trkpt>
      <trkpt lat="44.72181" lon="6.86287">
        <ele>1941.5</ele>
        <time>2021-12-19T10:04:32Z</time>
      </trkpt>
      <trkpt lat="44.72182" lon="6.863">
        <ele>1942.1</ele>
        <time>2021-12-19T10:04:38Z</time>
      </trkpt>
      <trkpt lat="44.72187" lon="6.86314">
        <ele>1940.8</ele>
        <time>2021-12-19T10:04:43Z</time>
      </trkpt>
      <trkpt lat="44.72192" lon="6.86346">
        <ele>1939.5</ele>
        <time>2021-12-19T10:04:52Z</time>
      </trkpt>
      <trkpt lat="44.72198" lon="6.86369">
        <ele>1938.3</ele>
        <time>2021-12-19T10:05:07Z</time>
      </trkpt>
      <trkpt lat="44.72217" lon="6.86423">
        <ele>1934.3</ele>
        <time>2021-12-19T10:05:37Z</time>
      </trkpt>
      <trkpt lat="44.7222" lon="6.86454">
        <ele>1934.5</ele>
        <time>2021-12-19T10:05:48Z</time>
      </trkpt>
      <trkpt lat="44.72217" lon="6.86471">
        <ele>1936.8</ele>
        <time>2021-12-19T10:05:59Z</time>
      </trkpt>
      <trkpt lat="44.72219" lon="6.8649">
        <ele>1936.8</ele>
        <time>2021-12-19T10:06:11Z</time>
      </trkpt>
      <trkpt lat="44.72223" lon="6.86524">
        <ele>1936.6</ele>
        <time>2021-12-19T10:06:37Z</time>
      </trkpt>
      <trkpt lat="44.72219" lon="6.86559">
        <ele>1939.2</ele>
        <time>2021-12-19T10:06:58Z</time>
      </trkpt>
      <trkpt lat="44.72223" lon="6.86577">
        <ele>1938.5</ele>
        <time>2021-12-19T10:07:09Z</time>
      </trkpt>
      <trkpt lat="44.72222" lon="6.86617">
        <ele>1940.1</ele>
        <time>2021-12-19T10:07:28Z</time>
      </trkpt>
      <trkpt lat="44.72227" lon="6.86636">
        <ele>1938.5</ele>
        <time>2021-12-19T10:07:38Z</time>
      </trkpt>
      <trkpt lat="44.72234" lon="6.86691">
        <ele>1937.2</ele>
        <time>2021-12-19T10:08:08Z</time>
      </trkpt>
      <trkpt lat="44.7223" lon="6.86709">
        <ele>1938.9</ele>
        <time>2021-12-19T10:08:20Z</time>
      </trkpt>
      <trkpt lat="44.72227" lon="6.86726">
        <ele>1940.3</ele>
        <time>2021-12-19T10:08:34Z</time>
      </trkpt>
      <trkpt lat="44.7223" lon="6.86762">
        <ele>1939.6</ele>
        <time>2021-12-19T10:08:54Z</time>
      </trkpt>
      <trkpt lat="44.72229" lon="6.86779">
        <ele>1940.6</ele>
        <time>2021-12-19T10:09:05Z</time>
      </trkpt>
      <trkpt lat="44.72228" lon="6.86797">
        <ele>1941.5</ele>
        <time>2021-12-19T10:09:21Z</time>
      </trkpt>
      <trkpt lat="44.72231" lon="6.8686">
        <ele>1944.1</ele>
        <time>2021-12-19T10:10:40Z</time>
      </trkpt>
      <trkpt lat="44.72234" lon="6.86859">
        <ele>1943.1</ele>
        <time>2021-12-19T10:11:04Z</time>
      </trkpt>
      <trkpt lat="44.72232" lon="6.86871">
        <ele>1944.3</ele>
        <time>2021-12-19T10:12:07Z</time>
      </trkpt>
      <trkpt lat="44.72238" lon="6.86888">
        <ele>1943.4</ele>
        <time>2021-12-19T10:12:22Z</time>
      </trkpt>
      <trkpt lat="44.7225" lon="6.86959">
        <ele>1938.5</ele>
        <time>2021-12-19T10:13:04Z</time>
      </trkpt>
      <trkpt lat="44.72254" lon="6.86972">
        <ele>1936.4</ele>
        <time>2021-12-19T10:13:09Z</time>
      </trkpt>
      <trkpt lat="44.72256" lon="6.86987">
        <ele>1935.5</ele>
        <time>2021-12-19T10:13:14Z</time>
      </trkpt>
      <trkpt lat="44.72257" lon="6.87005">
        <ele>1935.1</ele>
        <time>2021-12-19T10:13:18Z</time>
      </trkpt>
      <trkpt lat="44.72262" lon="6.87016">
        <ele>1933.1</ele>
        <time>2021-12-19T10:13:20Z</time>
      </trkpt>
      <trkpt lat="44.72257" lon="6.87034">
        <ele>1935.7</ele>
        <time>2021-12-19T10:13:35Z</time>
      </trkpt>
      <trkpt lat="44.72249" lon="6.8704">
        <ele>1939.4</ele>
        <time>2021-12-19T10:13:40Z</time>
      </trkpt>
      <trkpt lat="44.72247" lon="6.87054">
        <ele>1940.4</ele>
        <time>2021-12-19T10:13:45Z</time>
      </trkpt>
      <trkpt lat="44.72243" lon="6.8707">
        <ele>1942.4</ele>
        <time>2021-12-19T10:13:49Z</time>
      </trkpt>
      <trkpt lat="44.72242" lon="6.87083">
        <ele>1943</ele>
        <time>2021-12-19T10:13:53Z</time>
      </trkpt>
      <trkpt lat="44.72241" lon="6.87125">
        <ele>1943.5</ele>
        <time>2021-12-19T10:14:11Z</time>
      </trkpt>
      <trkpt lat="44.72244" lon="6.87144">
        <ele>1941.8</ele>
        <time>2021-12-19T10:14:16Z</time>
      </trkpt>
      <trkpt lat="44.72243" lon="6.87155">
        <ele>1941.9</ele>
        <time>2021-12-19T10:14:19Z</time>
      </trkpt>
      <trkpt lat="44.72243" lon="6.87193">
        <ele>1941.5</ele>
        <time>2021-12-19T10:14:40Z</time>
      </trkpt>
      <trkpt lat="44.72251" lon="6.8723">
        <ele>1937.3</ele>
        <time>2021-12-19T10:14:59Z</time>
      </trkpt>
      <trkpt lat="44.72251" lon="6.87247">
        <ele>1936.7</ele>
        <time>2021-12-19T10:15:12Z</time>
      </trkpt>
      <trkpt lat="44.72248" lon="6.87263">
        <ele>1938</ele>
        <time>2021-12-19T10:15:32Z</time>
      </trkpt>
      <trkpt lat="44.72235" lon="6.87292">
        <ele>1944</ele>
        <time>2021-12-19T10:16:14Z</time>
      </trkpt>
      <trkpt lat="44.72229" lon="6.87307">
        <ele>1946.8</ele>
        <time>2021-12-19T10:16:24Z</time>
      </trkpt>
      <trkpt lat="44.72222" lon="6.87319">
        <ele>1949.6</ele>
        <time>2021-12-19T10:16:29Z</time>
      </trkpt>
      <trkpt lat="44.72218" lon="6.8737">
        <ele>1950.1</ele>
        <time>2021-12-19T10:16:47Z</time>
      </trkpt>
      <trkpt lat="44.72219" lon="6.87384">
        <ele>1949.6</ele>
        <time>2021-12-19T10:16:50Z</time>
      </trkpt>
      <trkpt lat="44.72219" lon="6.87405">
        <ele>1950.2</ele>
        <time>2021-12-19T10:17:00Z</time>
      </trkpt>
      <trkpt lat="44.72215" lon="6.87425">
        <ele>1952.9</ele>
        <time>2021-12-19T10:17:10Z</time>
      </trkpt>
      <trkpt lat="44.72218" lon="6.87464">
        <ele>1952.7</ele>
        <time>2021-12-19T10:17:22Z</time>
      </trkpt>
      <trkpt lat="44.72215" lon="6.87487">
        <ele>1955.8</ele>
        <time>2021-12-19T10:17:31Z</time>
      </trkpt>
      <trkpt lat="44.72215" lon="6.87511">
        <ele>1957.5</ele>
        <time>2021-12-19T10:17:44Z</time>
      </trkpt>
      <trkpt lat="44.72219" lon="6.87529">
        <ele>1956.4</ele>
        <time>2021-12-19T10:17:55Z</time>
      </trkpt>
      <trkpt lat="44.72217" lon="6.87545">
        <ele>1957.8</ele>
        <time>2021-12-19T10:18:04Z</time>
      </trkpt>
      <trkpt lat="44.72219" lon="6.87567">
        <ele>1957.2</ele>
        <time>2021-12-19T10:18:14Z</time>
      </trkpt>
      <trkpt lat="44.72223" lon="6.87585">
        <ele>1955.7</ele>
        <time>2021-12-19T10:18:26Z</time>
      </trkpt>
      <trkpt lat="44.72229" lon="6.876">
        <ele>1953.1</ele>
        <time>2021-12-19T10:18:36Z</time>
      </trkpt>
      <trkpt lat="44.72229" lon="6.87617">
        <ele>1952.6</ele>
        <time>2021-12-19T10:18:49Z</time>
      </trkpt>
      <trkpt lat="44.72222" lon="6.87631">
        <ele>1954.4</ele>
        <time>2021-12-19T10:19:02Z</time>
      </trkpt>
      <trkpt lat="44.72221" lon="6.87642">
        <ele>1954.3</ele>
        <time>2021-12-19T10:19:04Z</time>
      </trkpt>
      <trkpt lat="44.72216" lon="6.87649">
        <ele>1955.8</ele>
        <time>2021-12-19T10:19:06Z</time>
      </trkpt>
      <trkpt lat="44.72213" lon="6.87662">
        <ele>1956.2</ele>
        <time>2021-12-19T10:19:09Z</time>
      </trkpt>
      <trkpt lat="44.72212" lon="6.87705">
        <ele>1954.7</ele>
        <time>2021-12-19T10:19:26Z</time>
      </trkpt>
      <trkpt lat="44.72209" lon="6.87724">
        <ele>1954.7</ele>
        <time>2021-12-19T10:19:35Z</time>
      </trkpt>
      <trkpt lat="44.72214" lon="6.87778">
        <ele>1951.7</ele>
        <time>2021-12-19T10:20:09Z</time>
      </trkpt>
      <trkpt lat="44.72208" lon="6.87795">
        <ele>1953</ele>
        <time>2021-12-19T10:20:21Z</time>
      </trkpt>
      <trkpt lat="44.72207" lon="6.87808">
        <ele>1952.8</ele>
        <time>2021-12-19T10:20:24Z</time>
      </trkpt>
      <trkpt lat="44.72202" lon="6.87816">
        <ele>1954</ele>
        <time>2021-12-19T10:20:27Z</time>
      </trkpt>
      <trkpt lat="44.72196" lon="6.8784">
        <ele>1954.4</ele>
        <time>2021-12-19T10:20:38Z</time>
      </trkpt>
      <trkpt lat="44.72202" lon="6.87872">
        <ele>1951.7</ele>
        <time>2021-12-19T10:20:52Z</time>
      </trkpt>
      <trkpt lat="44.72202" lon="6.87905">
        <ele>1951.1</ele>
        <time>2021-12-19T10:21:14Z</time>
      </trkpt>
      <trkpt lat="44.72201" lon="6.87918">
        <ele>1951.3</ele>
        <time>2021-12-19T10:21:24Z</time>
      </trkpt>
      <trkpt lat="44.72201" lon="6.87928">
        <ele>1951</ele>
        <time>2021-12-19T10:21:32Z</time>
      </trkpt>
      <trkpt lat="44.72193" lon="6.87954">
        <ele>1952.1</ele>
        <time>2021-12-19T10:21:39Z</time>
      </trkpt>
      <trkpt lat="44.72195" lon="6.87964">
        <ele>1951.2</ele>
        <time>2021-12-19T10:21:46Z</time>
      </trkpt>
      <trkpt lat="44.72199" lon="6.87982">
        <ele>1949.9</ele>
        <time>2021-12-19T10:21:56Z</time>
      </trkpt>
      <trkpt lat="44.7219" lon="6.88005">
        <ele>1951.3</ele>
        <time>2021-12-19T10:22:15Z</time>
      </trkpt>
      <trkpt lat="44.7219" lon="6.88024">
        <ele>1951.1</ele>
        <time>2021-12-19T10:22:26Z</time>
      </trkpt>
      <trkpt lat="44.72187" lon="6.88045">
        <ele>1951.9</ele>
        <time>2021-12-19T10:22:37Z</time>
      </trkpt>
      <trkpt lat="44.72178" lon="6.88056">
        <ele>1954.1</ele>
        <time>2021-12-19T10:22:54Z</time>
      </trkpt>
      <trkpt lat="44.72178" lon="6.88076">
        <ele>1954.1</ele>
        <time>2021-12-19T10:23:06Z</time>
      </trkpt>
      <trkpt lat="44.72172" lon="6.88092">
        <ele>1955.7</ele>
        <time>2021-12-19T10:23:20Z</time>
      </trkpt>
      <trkpt lat="44.72167" lon="6.88123">
        <ele>1956.9</ele>
        <time>2021-12-19T10:24:07Z</time>
      </trkpt>
      <trkpt lat="44.7217" lon="6.88139">
        <ele>1956.3</ele>
        <time>2021-12-19T10:24:18Z</time>
      </trkpt>
      <trkpt lat="44.72168" lon="6.88191">
        <ele>1959.5</ele>
        <time>2021-12-19T10:24:58Z</time>
      </trkpt>
      <trkpt lat="44.72161" lon="6.88226">
        <ele>1962.7</ele>
        <time>2021-12-19T10:25:23Z</time>
      </trkpt>
      <trkpt lat="44.72166" lon="6.8826">
        <ele>1962.5</ele>
        <time>2021-12-19T10:25:53Z</time>
      </trkpt>
      <trkpt lat="44.7217" lon="6.88275">
        <ele>1962.2</ele>
        <time>2021-12-19T10:26:14Z</time>
      </trkpt>
      <trkpt lat="44.72178" lon="6.88287">
        <ele>1960.6</ele>
        <time>2021-12-19T10:26:31Z</time>
      </trkpt>
      <trkpt lat="44.72177" lon="6.88302">
        <ele>1960.8</ele>
        <time>2021-12-19T10:26:45Z</time>
      </trkpt>
      <trkpt lat="44.7218" lon="6.88317">
        <ele>1960.1</ele>
        <time>2021-12-19T10:27:00Z</time>
      </trkpt>
      <trkpt lat="44.72179" lon="6.88333">
        <ele>1960.3</ele>
        <time>2021-12-19T10:27:20Z</time>
      </trkpt>
      <trkpt lat="44.72172" lon="6.88344">
        <ele>1961.9</ele>
        <time>2021-12-19T10:27:35Z</time>
      </trkpt>
      <trkpt lat="44.72167" lon="6.88358">
        <ele>1962.9</ele>
        <time>2021-12-19T10:27:49Z</time>
      </trkpt>
      <trkpt lat="44.72165" lon="6.88377">
        <ele>1963.4</ele>
        <time>2021-12-19T10:28:03Z</time>
      </trkpt>
      <trkpt lat="44.7215" lon="6.88413">
        <ele>1966.3</ele>
        <time>2021-12-19T10:28:32Z</time>
      </trkpt>
      <trkpt lat="44.72148" lon="6.88431">
        <ele>1966.4</ele>
        <time>2021-12-19T10:28:45Z</time>
      </trkpt>
      <trkpt lat="44.7214" lon="6.88449">
        <ele>1967.8</ele>
        <time>2021-12-19T10:29:04Z</time>
      </trkpt>
      <trkpt lat="44.72139" lon="6.88499">
        <ele>1967</ele>
        <time>2021-12-19T10:29:43Z</time>
      </trkpt>
      <trkpt lat="44.72144" lon="6.88515">
        <ele>1966.4</ele>
        <time>2021-12-19T10:29:54Z</time>
      </trkpt>
      <trkpt lat="44.72142" lon="6.8855">
        <ele>1966.7</ele>
        <time>2021-12-19T10:30:26Z</time>
      </trkpt>
      <trkpt lat="44.72129" lon="6.88579">
        <ele>1969.1</ele>
        <time>2021-12-19T10:30:53Z</time>
      </trkpt>
      <trkpt lat="44.7211" lon="6.88604">
        <ele>1973.3</ele>
        <time>2021-12-19T10:31:20Z</time>
      </trkpt>
      <trkpt lat="44.72104" lon="6.88619">
        <ele>1974.3</ele>
        <time>2021-12-19T10:31:33Z</time>
      </trkpt>
      <trkpt lat="44.72096" lon="6.88636">
        <ele>1975.4</ele>
        <time>2021-12-19T10:31:43Z</time>
      </trkpt>
      <trkpt lat="44.72087" lon="6.88671">
        <ele>1976.1</ele>
        <time>2021-12-19T10:32:02Z</time>
      </trkpt>
      <trkpt lat="44.72076" lon="6.88676">
        <ele>1978.2</ele>
        <time>2021-12-19T10:32:07Z</time>
      </trkpt>
      <trkpt lat="44.72068" lon="6.88686">
        <ele>1979.5</ele>
        <time>2021-12-19T10:32:14Z</time>
      </trkpt>
      <trkpt lat="44.72068" lon="6.88699">
        <ele>1978.6</ele>
        <time>2021-12-19T10:32:17Z</time>
      </trkpt>
      <trkpt lat="44.72067" lon="6.88727">
        <ele>1977.4</ele>
        <time>2021-12-19T10:32:29Z</time>
      </trkpt>
      <trkpt lat="44.7207" lon="6.88737">
        <ele>1976.6</ele>
        <time>2021-12-19T10:32:33Z</time>
      </trkpt>
      <trkpt lat="44.72071" lon="6.88751">
        <ele>1976.3</ele>
        <time>2021-12-19T10:32:45Z</time>
      </trkpt>
      <trkpt lat="44.72067" lon="6.88766">
        <ele>1977.4</ele>
        <time>2021-12-19T10:33:03Z</time>
      </trkpt>
      <trkpt lat="44.72059" lon="6.88779">
        <ele>1978.6</ele>
        <time>2021-12-19T10:33:17Z</time>
      </trkpt>
      <trkpt lat="44.7205" lon="6.8881">
        <ele>1980.2</ele>
        <time>2021-12-19T10:33:44Z</time>
      </trkpt>
      <trkpt lat="44.7205" lon="6.88827">
        <ele>1980</ele>
        <time>2021-12-19T10:33:59Z</time>
      </trkpt>
      <trkpt lat="44.7205" lon="6.88845">
        <ele>1979.9</ele>
        <time>2021-12-19T10:34:11Z</time>
      </trkpt>
      <trkpt lat="44.72046" lon="6.88862">
        <ele>1980.4</ele>
        <time>2021-12-19T10:34:34Z</time>
      </trkpt>
      <trkpt lat="44.72049" lon="6.88875">
        <ele>1979.9</ele>
        <time>2021-12-19T10:35:27Z</time>
      </trkpt>
      <trkpt lat="44.72043" lon="6.88907">
        <ele>1980.9</ele>
        <time>2021-12-19T10:35:59Z</time>
      </trkpt>
      <trkpt lat="44.72028" lon="6.88945">
        <ele>1982</ele>
        <time>2021-12-19T10:36:33Z</time>
      </trkpt>
      <trkpt lat="44.72025" lon="6.88954">
        <ele>1982.5</ele>
        <time>2021-12-19T10:36:39Z</time>
      </trkpt>
      <trkpt lat="44.7202" lon="6.88962">
        <ele>1983.4</ele>
        <time>2021-12-19T10:36:43Z</time>
      </trkpt>
      <trkpt lat="44.72018" lon="6.88975">
        <ele>1983.8</ele>
        <time>2021-12-19T10:36:48Z</time>
      </trkpt>
      <trkpt lat="44.72009" lon="6.88998">
        <ele>1985.1</ele>
        <time>2021-12-19T10:36:58Z</time>
      </trkpt>
      <trkpt lat="44.72008" lon="6.89065">
        <ele>1985.5</ele>
        <time>2021-12-19T10:37:33Z</time>
      </trkpt>
      <trkpt lat="44.71995" lon="6.89078">
        <ele>1987.1</ele>
        <time>2021-12-19T10:37:42Z</time>
      </trkpt>
      <trkpt lat="44.71996" lon="6.89093">
        <ele>1987.2</ele>
        <time>2021-12-19T10:37:49Z</time>
      </trkpt>
      <trkpt lat="44.71988" lon="6.89107">
        <ele>1989.1</ele>
        <time>2021-12-19T10:38:06Z</time>
      </trkpt>
      <trkpt lat="44.7198" lon="6.89106">
        <ele>1990.5</ele>
        <time>2021-12-19T10:38:15Z</time>
      </trkpt>
      <trkpt lat="44.7198" lon="6.89119">
        <ele>1990.8</ele>
        <time>2021-12-19T10:38:24Z</time>
      </trkpt>
      <trkpt lat="44.7198" lon="6.89137">
        <ele>1991.3</ele>
        <time>2021-12-19T10:38:28Z</time>
      </trkpt>
      <trkpt lat="44.71983" lon="6.89161">
        <ele>1991.5</ele>
        <time>2021-12-19T10:38:43Z</time>
      </trkpt>
      <trkpt lat="44.71981" lon="6.89179">
        <ele>1993.5</ele>
        <time>2021-12-19T10:38:56Z</time>
      </trkpt>
      <trkpt lat="44.71973" lon="6.89191">
        <ele>1997.3</ele>
        <time>2021-12-19T10:39:11Z</time>
      </trkpt>
      <trkpt lat="44.71971" lon="6.89203">
        <ele>1999.3</ele>
        <time>2021-12-19T10:39:17Z</time>
      </trkpt>
      <trkpt lat="44.71979" lon="6.89235">
        <ele>1999.7</ele>
        <time>2021-12-19T10:39:46Z</time>
      </trkpt>
      <trkpt lat="44.71973" lon="6.89268">
        <ele>2003.4</ele>
        <time>2021-12-19T10:40:24Z</time>
      </trkpt>
      <trkpt lat="44.71971" lon="6.89287">
        <ele>2004.3</ele>
        <time>2021-12-19T10:40:33Z</time>
      </trkpt>
      <trkpt lat="44.71973" lon="6.89297">
        <ele>2003.8</ele>
        <time>2021-12-19T10:40:36Z</time>
      </trkpt>
      <trkpt lat="44.7197" lon="6.89327">
        <ele>2003.8</ele>
        <time>2021-12-19T10:40:56Z</time>
      </trkpt>
      <trkpt lat="44.71971" lon="6.89343">
        <ele>2003.4</ele>
        <time>2021-12-19T10:41:06Z</time>
      </trkpt>
      <trkpt lat="44.71972" lon="6.89383">
        <ele>2002.3</ele>
        <time>2021-12-19T10:41:39Z</time>
      </trkpt>
      <trkpt lat="44.71969" lon="6.89394">
        <ele>2003.1</ele>
        <time>2021-12-19T10:41:45Z</time>
      </trkpt>
      <trkpt lat="44.71968" lon="6.8942">
        <ele>2004.3</ele>
        <time>2021-12-19T10:42:03Z</time>
      </trkpt>
      <trkpt lat="44.71961" lon="6.89484">
        <ele>2005.8</ele>
        <time>2021-12-19T10:42:42Z</time>
      </trkpt>
      <trkpt lat="44.71955" lon="6.89497">
        <ele>2006.3</ele>
        <time>2021-12-19T10:42:50Z</time>
      </trkpt>
      <trkpt lat="44.71953" lon="6.89508">
        <ele>2006.3</ele>
        <time>2021-12-19T10:42:59Z</time>
      </trkpt>
      <trkpt lat="44.71945" lon="6.89524">
        <ele>2007.1</ele>
        <time>2021-12-19T10:44:00Z</time>
      </trkpt>
      <trkpt lat="44.71922" lon="6.89553">
        <ele>2007.5</ele>
        <time>2021-12-19T10:44:14Z</time>
      </trkpt>
      <trkpt lat="44.71912" lon="6.89564">
        <ele>2007.9</ele>
        <time>2021-12-19T10:44:20Z</time>
      </trkpt>
      <trkpt lat="44.71903" lon="6.8957">
        <ele>2008.4</ele>
        <time>2021-12-19T10:44:27Z</time>
      </trkpt>
      <trkpt lat="44.71892" lon="6.89586">
        <ele>2008.5</ele>
        <time>2021-12-19T10:44:41Z</time>
      </trkpt>
      <trkpt lat="44.71881" lon="6.89617">
        <ele>2008.8</ele>
        <time>2021-12-19T10:45:23Z</time>
      </trkpt>
      <trkpt lat="44.71875" lon="6.89632">
        <ele>2009.5</ele>
        <time>2021-12-19T10:45:36Z</time>
      </trkpt>
      <trkpt lat="44.71867" lon="6.89644">
        <ele>2011</ele>
        <time>2021-12-19T10:45:46Z</time>
      </trkpt>
      <trkpt lat="44.71856" lon="6.89654">
        <ele>2013.9</ele>
        <time>2021-12-19T10:45:58Z</time>
      </trkpt>
      <trkpt lat="44.71866" lon="6.89691">
        <ele>2009.4</ele>
        <time>2021-12-19T10:46:23Z</time>
      </trkpt>
      <trkpt lat="44.71861" lon="6.89702">
        <ele>2009.8</ele>
        <time>2021-12-19T10:46:38Z</time>
      </trkpt>
      <trkpt lat="44.71862" lon="6.89713">
        <ele>2009.2</ele>
        <time>2021-12-19T10:46:45Z</time>
      </trkpt>
      <trkpt lat="44.71859" lon="6.89723">
        <ele>2009.6</ele>
        <time>2021-12-19T10:46:50Z</time>
      </trkpt>
      <trkpt lat="44.71857" lon="6.89734">
        <ele>2010.1</ele>
        <time>2021-12-19T10:46:55Z</time>
      </trkpt>
      <trkpt lat="44.71863" lon="6.89804">
        <ele>2009.9</ele>
        <time>2021-12-19T10:47:27Z</time>
      </trkpt>
      <trkpt lat="44.71855" lon="6.89862">
        <ele>2011.7</ele>
        <time>2021-12-19T10:48:01Z</time>
      </trkpt>
      <trkpt lat="44.71848" lon="6.89909">
        <ele>2013.3</ele>
        <time>2021-12-19T10:48:28Z</time>
      </trkpt>
      <trkpt lat="44.71847" lon="6.89942">
        <ele>2014</ele>
        <time>2021-12-19T10:48:52Z</time>
      </trkpt>
      <trkpt lat="44.7185" lon="6.8996">
        <ele>2014.6</ele>
        <time>2021-12-19T10:49:01Z</time>
      </trkpt>
      <trkpt lat="44.71865" lon="6.89997">
        <ele>2015.1</ele>
        <time>2021-12-19T10:49:22Z</time>
      </trkpt>
      <trkpt lat="44.71881" lon="6.90068">
        <ele>2018</ele>
        <time>2021-12-19T10:49:54Z</time>
      </trkpt>
      <trkpt lat="44.71881" lon="6.90084">
        <ele>2018.6</ele>
        <time>2021-12-19T10:50:04Z</time>
      </trkpt>
      <trkpt lat="44.71883" lon="6.90105">
        <ele>2018.6</ele>
        <time>2021-12-19T10:50:15Z</time>
      </trkpt>
      <trkpt lat="44.71879" lon="6.90159">
        <ele>2019.9</ele>
        <time>2021-12-19T10:51:01Z</time>
      </trkpt>
      <trkpt lat="44.71874" lon="6.90206">
        <ele>2021.1</ele>
        <time>2021-12-19T10:51:24Z</time>
      </trkpt>
      <trkpt lat="44.71875" lon="6.90261">
        <ele>2022.4</ele>
        <time>2021-12-19T10:52:06Z</time>
      </trkpt>
      <trkpt lat="44.7188" lon="6.90277">
        <ele>2022.6</ele>
        <time>2021-12-19T10:52:19Z</time>
      </trkpt>
      <trkpt lat="44.71885" lon="6.90311">
        <ele>2022.6</ele>
        <time>2021-12-19T10:52:39Z</time>
      </trkpt>
      <trkpt lat="44.7188" lon="6.90321">
        <ele>2023.5</ele>
        <time>2021-12-19T10:52:48Z</time>
      </trkpt>
      <trkpt lat="44.71872" lon="6.9035">
        <ele>2025.4</ele>
        <time>2021-12-19T10:53:35Z</time>
      </trkpt>
      <trkpt lat="44.71877" lon="6.90359">
        <ele>2025.2</ele>
        <time>2021-12-19T10:54:41Z</time>
      </trkpt>
      <trkpt lat="44.7189" lon="6.90368">
        <ele>2024</ele>
        <time>2021-12-19T10:55:08Z</time>
      </trkpt>
      <trkpt lat="44.71896" lon="6.90433">
        <ele>2025</ele>
        <time>2021-12-19T10:57:05Z</time>
      </trkpt>
      <trkpt lat="44.71899" lon="6.90449">
        <ele>2025.1</ele>
        <time>2021-12-19T10:57:34Z</time>
      </trkpt>
      <trkpt lat="44.71914" lon="6.9043">
        <ele>2025</ele>
        <time>2021-12-19T11:02:46Z</time>
      </trkpt>
      <trkpt lat="44.71917" lon="6.90431">
        <ele>2025</ele>
        <time>2021-12-19T11:03:34Z</time>
      </trkpt>
      <trkpt lat="44.71911" lon="6.90427">
        <ele>2025</ele>
        <time>2021-12-19T11:14:07Z</time>
      </trkpt>
      <trkpt lat="44.71912" lon="6.90412">
        <ele>2025</ele>
        <time>2021-12-19T11:16:29Z</time>
      </trkpt>
      <trkpt lat="44.71913" lon="6.90422">
        <ele>2025</ele>
        <time>2021-12-19T11:24:58Z</time>
      </trkpt>
      <trkpt lat="44.71915" lon="6.90435">
        <ele>2025</ele>
        <time>2021-12-19T11:28:10Z</time>
      </trkpt>
      <trkpt lat="44.71899" lon="6.9045">
        <ele>2025.1</ele>
        <time>2021-12-19T11:28:42Z</time>
      </trkpt>
      <trkpt lat="44.71892" lon="6.90457">
        <ele>2025.1</ele>
        <time>2021-12-19T11:28:56Z</time>
      </trkpt>
      <trkpt lat="44.71875" lon="6.90464">
        <ele>2025.5</ele>
        <time>2021-12-19T11:29:11Z</time>
      </trkpt>
      <trkpt lat="44.71861" lon="6.90456">
        <ele>2026</ele>
        <time>2021-12-19T11:29:17Z</time>
      </trkpt>
      <trkpt lat="44.71854" lon="6.9045">
        <ele>2026.7</ele>
        <time>2021-12-19T11:29:22Z</time>
      </trkpt>
      <trkpt lat="44.71848" lon="6.90444">
        <ele>2027.4</ele>
        <time>2021-12-19T11:29:33Z</time>
      </trkpt>
      <trkpt lat="44.7185" lon="6.90427">
        <ele>2027.5</ele>
        <time>2021-12-19T11:29:40Z</time>
      </trkpt>
      <trkpt lat="44.71858" lon="6.90415">
        <ele>2026.5</ele>
        <time>2021-12-19T11:29:47Z</time>
      </trkpt>
      <trkpt lat="44.71866" lon="6.90404">
        <ele>2025.7</ele>
        <time>2021-12-19T11:29:53Z</time>
      </trkpt>
      <trkpt lat="44.71872" lon="6.90393">
        <ele>2025.3</ele>
        <time>2021-12-19T11:30:00Z</time>
      </trkpt>
      <trkpt lat="44.71884" lon="6.90385">
        <ele>2024.4</ele>
        <time>2021-12-19T11:30:11Z</time>
      </trkpt>
      <trkpt lat="44.71886" lon="6.90378">
        <ele>2024.2</ele>
        <time>2021-12-19T11:32:20Z</time>
      </trkpt>
      <trkpt lat="44.71894" lon="6.90359">
        <ele>2023.7</ele>
        <time>2021-12-19T11:33:34Z</time>
      </trkpt>
      <trkpt lat="44.71885" lon="6.90372">
        <ele>2024.4</ele>
        <time>2021-12-19T11:35:09Z</time>
      </trkpt>
      <trkpt lat="44.71885" lon="6.90358">
        <ele>2024.3</ele>
        <time>2021-12-19T11:36:04Z</time>
      </trkpt>
      <trkpt lat="44.71876" lon="6.9036">
        <ele>2025.4</ele>
        <time>2021-12-19T11:38:08Z</time>
      </trkpt>
      <trkpt lat="44.71865" lon="6.90365">
        <ele>2026.5</ele>
        <time>2021-12-19T11:38:26Z</time>
      </trkpt>
      <trkpt lat="44.71857" lon="6.90373">
        <ele>2027.2</ele>
        <time>2021-12-19T11:38:38Z</time>
      </trkpt>
      <trkpt lat="44.7185" lon="6.90384">
        <ele>2028.1</ele>
        <time>2021-12-19T11:38:46Z</time>
      </trkpt>
      <trkpt lat="44.71828" lon="6.90403">
        <ele>2031.5</ele>
        <time>2021-12-19T11:39:17Z</time>
      </trkpt>
      <trkpt lat="44.71804" lon="6.90442">
        <ele>2034.5</ele>
        <time>2021-12-19T11:39:54Z</time>
      </trkpt>
      <trkpt lat="44.71771" lon="6.90479">
        <ele>2036.3</ele>
        <time>2021-12-19T11:40:30Z</time>
      </trkpt>
      <trkpt lat="44.71762" lon="6.90485">
        <ele>2037.2</ele>
        <time>2021-12-19T11:40:33Z</time>
      </trkpt>
      <trkpt lat="44.71735" lon="6.90523">
        <ele>2037</ele>
        <time>2021-12-19T11:40:52Z</time>
      </trkpt>
      <trkpt lat="44.71717" lon="6.90592">
        <ele>2035.9</ele>
        <time>2021-12-19T11:41:30Z</time>
      </trkpt>
      <trkpt lat="44.71719" lon="6.90595">
        <ele>2035.5</ele>
        <time>2021-12-19T11:43:44Z</time>
      </trkpt>
      <trkpt lat="44.71725" lon="6.90581">
        <ele>2034.9</ele>
        <time>2021-12-19T11:43:48Z</time>
      </trkpt>
      <trkpt lat="44.71728" lon="6.90567">
        <ele>2035</ele>
        <time>2021-12-19T11:43:57Z</time>
      </trkpt>
      <trkpt lat="44.71731" lon="6.90553">
        <ele>2035.2</ele>
        <time>2021-12-19T11:44:03Z</time>
      </trkpt>
      <trkpt lat="44.71736" lon="6.90539">
        <ele>2035.7</ele>
        <time>2021-12-19T11:44:09Z</time>
      </trkpt>
      <trkpt lat="44.71741" lon="6.90527">
        <ele>2036</ele>
        <time>2021-12-19T11:44:15Z</time>
      </trkpt>
      <trkpt lat="44.71745" lon="6.90514">
        <ele>2036.9</ele>
        <time>2021-12-19T11:44:21Z</time>
      </trkpt>
      <trkpt lat="44.71763" lon="6.90492">
        <ele>2036.4</ele>
        <time>2021-12-19T11:44:33Z</time>
      </trkpt>
      <trkpt lat="44.71773" lon="6.90488">
        <ele>2035.1</ele>
        <time>2021-12-19T11:44:38Z</time>
      </trkpt>
      <trkpt lat="44.71791" lon="6.90467">
        <ele>2034.2</ele>
        <time>2021-12-19T11:44:47Z</time>
      </trkpt>
      <trkpt lat="44.71799" lon="6.90456">
        <ele>2033.9</ele>
        <time>2021-12-19T11:44:52Z</time>
      </trkpt>
      <trkpt lat="44.71809" lon="6.9045">
        <ele>2032.8</ele>
        <time>2021-12-19T11:44:56Z</time>
      </trkpt>
      <trkpt lat="44.7184" lon="6.90411">
        <ele>2029.2</ele>
        <time>2021-12-19T11:45:08Z</time>
      </trkpt>
      <trkpt lat="44.71861" lon="6.90395">
        <ele>2026</ele>
        <time>2021-12-19T11:45:15Z</time>
      </trkpt>
      <trkpt lat="44.71868" lon="6.90385">
        <ele>2025.6</ele>
        <time>2021-12-19T11:45:20Z</time>
      </trkpt>
      <trkpt lat="44.71879" lon="6.90377">
        <ele>2024.9</ele>
        <time>2021-12-19T11:45:43Z</time>
      </trkpt>
      <trkpt lat="44.71884" lon="6.90385">
        <ele>2024.4</ele>
        <time>2021-12-19T11:45:55Z</time>
      </trkpt>
      <trkpt lat="44.7187" lon="6.90406">
        <ele>2025.6</ele>
        <time>2021-12-19T11:46:09Z</time>
      </trkpt>
      <trkpt lat="44.71865" lon="6.90413">
        <ele>2025.8</ele>
        <time>2021-12-19T11:46:18Z</time>
      </trkpt>
      <trkpt lat="44.71836" lon="6.90432">
        <ele>2029.1</ele>
        <time>2021-12-19T11:46:37Z</time>
      </trkpt>
      <trkpt lat="44.71826" lon="6.90436">
        <ele>2030.7</ele>
        <time>2021-12-19T11:46:44Z</time>
      </trkpt>
      <trkpt lat="44.7182" lon="6.90441">
        <ele>2031.6</ele>
        <time>2021-12-19T11:46:53Z</time>
      </trkpt>
      <trkpt lat="44.71809" lon="6.90453">
        <ele>2032.5</ele>
        <time>2021-12-19T11:47:10Z</time>
      </trkpt>
      <trkpt lat="44.71799" lon="6.90478">
        <ele>2031.7</ele>
        <time>2021-12-19T11:47:21Z</time>
      </trkpt>
      <trkpt lat="44.71782" lon="6.90504">
        <ele>2032.1</ele>
        <time>2021-12-19T11:47:41Z</time>
      </trkpt>
      <trkpt lat="44.71776" lon="6.90517">
        <ele>2032.1</ele>
        <time>2021-12-19T11:47:47Z</time>
      </trkpt>
      <trkpt lat="44.71767" lon="6.9053">
        <ele>2032.5</ele>
        <time>2021-12-19T11:48:01Z</time>
      </trkpt>
      <trkpt lat="44.71761" lon="6.90548">
        <ele>2032.5</ele>
        <time>2021-12-19T11:48:12Z</time>
      </trkpt>
      <trkpt lat="44.71757" lon="6.90562">
        <ele>2032.5</ele>
        <time>2021-12-19T11:48:16Z</time>
      </trkpt>
      <trkpt lat="44.7175" lon="6.90562">
        <ele>2033</ele>
        <time>2021-12-19T11:54:39Z</time>
      </trkpt>
      <trkpt lat="44.71746" lon="6.90549">
        <ele>2033.9</ele>
        <time>2021-12-19T11:54:44Z</time>
      </trkpt>
      <trkpt lat="44.7174" lon="6.90562">
        <ele>2034</ele>
        <time>2021-12-19T11:55:26Z</time>
      </trkpt>
      <trkpt lat="44.71731" lon="6.90572">
        <ele>2034.6</ele>
        <time>2021-12-19T11:55:39Z</time>
      </trkpt>
      <trkpt lat="44.71723" lon="6.90586">
        <ele>2034.9</ele>
        <time>2021-12-19T11:55:50Z</time>
      </trkpt>
      <trkpt lat="44.71711" lon="6.90598">
        <ele>2036.8</ele>
        <time>2021-12-19T11:56:05Z</time>
      </trkpt>
      <trkpt lat="44.71704" lon="6.90589">
        <ele>2038.1</ele>
        <time>2021-12-19T11:56:41Z</time>
      </trkpt>
      <trkpt lat="44.71692" lon="6.90621">
        <ele>2039.8</ele>
        <time>2021-12-19T12:00:54Z</time>
      </trkpt>
      <trkpt lat="44.71692" lon="6.90635">
        <ele>2039.7</ele>
        <time>2021-12-19T12:01:29Z</time>
      </trkpt>
      <trkpt lat="44.71679" lon="6.90659">
        <ele>2043.8</ele>
        <time>2021-12-19T12:02:10Z</time>
      </trkpt>
      <trkpt lat="44.71667" lon="6.90704">
        <ele>2047.6</ele>
        <time>2021-12-19T12:02:50Z</time>
      </trkpt>
      <trkpt lat="44.71662" lon="6.90718">
        <ele>2049.9</ele>
        <time>2021-12-19T12:03:03Z</time>
      </trkpt>
      <trkpt lat="44.7166" lon="6.90735">
        <ele>2051.4</ele>
        <time>2021-12-19T12:03:16Z</time>
      </trkpt>
      <trkpt lat="44.71654" lon="6.90751">
        <ele>2053.3</ele>
        <time>2021-12-19T12:03:31Z</time>
      </trkpt>
      <trkpt lat="44.71645" lon="6.90761">
        <ele>2054.9</ele>
        <time>2021-12-19T12:03:42Z</time>
      </trkpt>
      <trkpt lat="44.71631" lon="6.90786">
        <ele>2058.3</ele>
        <time>2021-12-19T12:04:09Z</time>
      </trkpt>
      <trkpt lat="44.71625" lon="6.90803">
        <ele>2060</ele>
        <time>2021-12-19T12:04:22Z</time>
      </trkpt>
      <trkpt lat="44.71618" lon="6.90817">
        <ele>2062.2</ele>
        <time>2021-12-19T12:04:36Z</time>
      </trkpt>
      <trkpt lat="44.7161" lon="6.90831">
        <ele>2064.3</ele>
        <time>2021-12-19T12:04:53Z</time>
      </trkpt>
      <trkpt lat="44.71598" lon="6.90862">
        <ele>2066.8</ele>
        <time>2021-12-19T12:05:19Z</time>
      </trkpt>
      <trkpt lat="44.71587" lon="6.90878">
        <ele>2068.7</ele>
        <time>2021-12-19T12:05:32Z</time>
      </trkpt>
      <trkpt lat="44.71586" lon="6.90894">
        <ele>2068.4</ele>
        <time>2021-12-19T12:05:51Z</time>
      </trkpt>
      <trkpt lat="44.71582" lon="6.90906">
        <ele>2068.6</ele>
        <time>2021-12-19T12:06:06Z</time>
      </trkpt>
      <trkpt lat="44.71582" lon="6.90918">
        <ele>2068.2</ele>
        <time>2021-12-19T12:06:22Z</time>
      </trkpt>
      <trkpt lat="44.71563" lon="6.90941">
        <ele>2071.4</ele>
        <time>2021-12-19T12:06:43Z</time>
      </trkpt>
      <trkpt lat="44.71558" lon="6.90954">
        <ele>2072.2</ele>
        <time>2021-12-19T12:07:00Z</time>
      </trkpt>
      <trkpt lat="44.71554" lon="6.9097">
        <ele>2072.5</ele>
        <time>2021-12-19T12:07:25Z</time>
      </trkpt>
      <trkpt lat="44.71544" lon="6.90977">
        <ele>2075</ele>
        <time>2021-12-19T12:07:46Z</time>
      </trkpt>
      <trkpt lat="44.71532" lon="6.91008">
        <ele>2078.3</ele>
        <time>2021-12-19T12:08:26Z</time>
      </trkpt>
      <trkpt lat="44.7152" lon="6.91038">
        <ele>2082.3</ele>
        <time>2021-12-19T12:09:05Z</time>
      </trkpt>
      <trkpt lat="44.71514" lon="6.91049">
        <ele>2084.2</ele>
        <time>2021-12-19T12:09:26Z</time>
      </trkpt>
      <trkpt lat="44.71488" lon="6.9108">
        <ele>2090.6</ele>
        <time>2021-12-19T12:10:21Z</time>
      </trkpt>
      <trkpt lat="44.71477" lon="6.91082">
        <ele>2093</ele>
        <time>2021-12-19T12:10:38Z</time>
      </trkpt>
      <trkpt lat="44.71464" lon="6.91088">
        <ele>2096</ele>
        <time>2021-12-19T12:10:51Z</time>
      </trkpt>
      <trkpt lat="44.71452" lon="6.91087">
        <ele>2099</ele>
        <time>2021-12-19T12:11:24Z</time>
      </trkpt>
      <trkpt lat="44.7144" lon="6.91096">
        <ele>2101.6</ele>
        <time>2021-12-19T12:11:36Z</time>
      </trkpt>
      <trkpt lat="44.71423" lon="6.91118">
        <ele>2105.2</ele>
        <time>2021-12-19T12:12:10Z</time>
      </trkpt>
      <trkpt lat="44.71413" lon="6.91134">
        <ele>2107.1</ele>
        <time>2021-12-19T12:12:19Z</time>
      </trkpt>
      <trkpt lat="44.71377" lon="6.91164">
        <ele>2116</ele>
        <time>2021-12-19T12:12:50Z</time>
      </trkpt>
      <trkpt lat="44.7137" lon="6.91179">
        <ele>2118.1</ele>
        <time>2021-12-19T12:13:03Z</time>
      </trkpt>
      <trkpt lat="44.71375" lon="6.91194">
        <ele>2117</ele>
        <time>2021-12-19T12:13:25Z</time>
      </trkpt>
      <trkpt lat="44.71377" lon="6.91209">
        <ele>2116.7</ele>
        <time>2021-12-19T12:13:55Z</time>
      </trkpt>
      <trkpt lat="44.71364" lon="6.91231">
        <ele>2120.3</ele>
        <time>2021-12-19T12:14:33Z</time>
      </trkpt>
      <trkpt lat="44.71356" lon="6.91223">
        <ele>2122.1</ele>
        <time>2021-12-19T12:14:42Z</time>
      </trkpt>
      <trkpt lat="44.71342" lon="6.91221">
        <ele>2125.1</ele>
        <time>2021-12-19T12:15:07Z</time>
      </trkpt>
      <trkpt lat="44.71332" lon="6.91227">
        <ele>2127.3</ele>
        <time>2021-12-19T12:15:34Z</time>
      </trkpt>
      <trkpt lat="44.71326" lon="6.91242">
        <ele>2128.4</ele>
        <time>2021-12-19T12:15:52Z</time>
      </trkpt>
      <trkpt lat="44.71315" lon="6.91255">
        <ele>2130.3</ele>
        <time>2021-12-19T12:16:16Z</time>
      </trkpt>
      <trkpt lat="44.71306" lon="6.91249">
        <ele>2132</ele>
        <time>2021-12-19T12:16:50Z</time>
      </trkpt>
      <trkpt lat="44.71297" lon="6.91255">
        <ele>2133.8</ele>
        <time>2021-12-19T12:17:34Z</time>
      </trkpt>
      <trkpt lat="44.71289" lon="6.91242">
        <ele>2135.7</ele>
        <time>2021-12-19T12:17:43Z</time>
      </trkpt>
      <trkpt lat="44.71276" lon="6.91237">
        <ele>2138.3</ele>
        <time>2021-12-19T12:17:58Z</time>
      </trkpt>
      <trkpt lat="44.71265" lon="6.91242">
        <ele>2140.4</ele>
        <time>2021-12-19T12:18:14Z</time>
      </trkpt>
      <trkpt lat="44.71256" lon="6.9125">
        <ele>2141.9</ele>
        <time>2021-12-19T12:18:43Z</time>
      </trkpt>
      <trkpt lat="44.71245" lon="6.91259">
        <ele>2143.2</ele>
        <time>2021-12-19T12:18:59Z</time>
      </trkpt>
      <trkpt lat="44.71236" lon="6.91268">
        <ele>2143.9</ele>
        <time>2021-12-19T12:19:10Z</time>
      </trkpt>
      <trkpt lat="44.71231" lon="6.91278">
        <ele>2143.7</ele>
        <time>2021-12-19T12:19:27Z</time>
      </trkpt>
      <trkpt lat="44.7122" lon="6.91274">
        <ele>2145.9</ele>
        <time>2021-12-19T12:19:40Z</time>
      </trkpt>
      <trkpt lat="44.71209" lon="6.91265">
        <ele>2149</ele>
        <time>2021-12-19T12:19:50Z</time>
      </trkpt>
      <trkpt lat="44.71203" lon="6.91276">
        <ele>2149.3</ele>
        <time>2021-12-19T12:20:09Z</time>
      </trkpt>
      <trkpt lat="44.71193" lon="6.91272">
        <ele>2151.6</ele>
        <time>2021-12-19T12:20:24Z</time>
      </trkpt>
      <trkpt lat="44.71186" lon="6.91263">
        <ele>2153.4</ele>
        <time>2021-12-19T12:20:33Z</time>
      </trkpt>
      <trkpt lat="44.71182" lon="6.91251">
        <ele>2155.2</ele>
        <time>2021-12-19T12:20:40Z</time>
      </trkpt>
      <trkpt lat="44.71182" lon="6.91235">
        <ele>2156.3</ele>
        <time>2021-12-19T12:20:54Z</time>
      </trkpt>
      <trkpt lat="44.71172" lon="6.91229">
        <ele>2158.6</ele>
        <time>2021-12-19T12:21:10Z</time>
      </trkpt>
      <trkpt lat="44.71148" lon="6.91233">
        <ele>2162.6</ele>
        <time>2021-12-19T12:22:02Z</time>
      </trkpt>
      <trkpt lat="44.71139" lon="6.91228">
        <ele>2164.6</ele>
        <time>2021-12-19T12:22:17Z</time>
      </trkpt>
      <trkpt lat="44.71129" lon="6.91217">
        <ele>2167.5</ele>
        <time>2021-12-19T12:22:33Z</time>
      </trkpt>
      <trkpt lat="44.7112" lon="6.91223">
        <ele>2169</ele>
        <time>2021-12-19T12:22:46Z</time>
      </trkpt>
      <trkpt lat="44.71113" lon="6.91233">
        <ele>2169.5</ele>
        <time>2021-12-19T12:23:12Z</time>
      </trkpt>
      <trkpt lat="44.71059" lon="6.91169">
        <ele>2186.1</ele>
        <time>2021-12-19T12:25:03Z</time>
      </trkpt>
      <trkpt lat="44.71039" lon="6.91149">
        <ele>2191.3</ele>
        <time>2021-12-19T12:25:50Z</time>
      </trkpt>
      <trkpt lat="44.7103" lon="6.91153">
        <ele>2193.4</ele>
        <time>2021-12-19T12:26:24Z</time>
      </trkpt>
      <trkpt lat="44.71021" lon="6.91156">
        <ele>2195.2</ele>
        <time>2021-12-19T12:26:45Z</time>
      </trkpt>
      <trkpt lat="44.71016" lon="6.91148">
        <ele>2196.9</ele>
        <time>2021-12-19T12:26:49Z</time>
      </trkpt>
      <trkpt lat="44.71009" lon="6.9114">
        <ele>2199</ele>
        <time>2021-12-19T12:26:55Z</time>
      </trkpt>
      <trkpt lat="44.70987" lon="6.91137">
        <ele>2203.9</ele>
        <time>2021-12-19T12:27:35Z</time>
      </trkpt>
      <trkpt lat="44.70975" lon="6.91141">
        <ele>2206.2</ele>
        <time>2021-12-19T12:28:14Z</time>
      </trkpt>
      <trkpt lat="44.70969" lon="6.91131">
        <ele>2208</ele>
        <time>2021-12-19T12:28:23Z</time>
      </trkpt>
      <trkpt lat="44.7096" lon="6.91125">
        <ele>2210.4</ele>
        <time>2021-12-19T12:28:39Z</time>
      </trkpt>
      <trkpt lat="44.70955" lon="6.91136">
        <ele>2210.9</ele>
        <time>2021-12-19T12:28:57Z</time>
      </trkpt>
      <trkpt lat="44.70944" lon="6.91143">
        <ele>2213</ele>
        <time>2021-12-19T12:29:12Z</time>
      </trkpt>
      <trkpt lat="44.70936" lon="6.91132">
        <ele>2215.5</ele>
        <time>2021-12-19T12:29:35Z</time>
      </trkpt>
      <trkpt lat="44.70932" lon="6.91121">
        <ele>2217.1</ele>
        <time>2021-12-19T12:29:56Z</time>
      </trkpt>
      <trkpt lat="44.70925" lon="6.9113">
        <ele>2218.3</ele>
        <time>2021-12-19T12:30:43Z</time>
      </trkpt>
      <trkpt lat="44.70933" lon="6.91141">
        <ele>2215.8</ele>
        <time>2021-12-19T12:31:14Z</time>
      </trkpt>
      <trkpt lat="44.70947" lon="6.91141">
        <ele>2212.4</ele>
        <time>2021-12-19T12:31:26Z</time>
      </trkpt>
      <trkpt lat="44.70947" lon="6.91126">
        <ele>2213.3</ele>
        <time>2021-12-19T12:32:29Z</time>
      </trkpt>
      <trkpt lat="44.70937" lon="6.91116">
        <ele>2216.3</ele>
        <time>2021-12-19T12:33:38Z</time>
      </trkpt>
      <trkpt lat="44.70924" lon="6.91119">
        <ele>2219.1</ele>
        <time>2021-12-19T12:33:51Z</time>
      </trkpt>
      <trkpt lat="44.70926" lon="6.91124">
        <ele>2218.4</ele>
        <time>2021-12-19T12:34:35Z</time>
      </trkpt>
      <trkpt lat="44.70924" lon="6.91124">
        <ele>2218.8</ele>
        <time>2021-12-19T12:35:58Z</time>
      </trkpt>
      <trkpt lat="44.70922" lon="6.91113">
        <ele>2219.8</ele>
        <time>2021-12-19T12:37:31Z</time>
      </trkpt>
      <trkpt lat="44.70931" lon="6.91118">
        <ele>2217.5</ele>
        <time>2021-12-19T12:38:00Z</time>
      </trkpt>
      <trkpt lat="44.70926" lon="6.9113">
        <ele>2218.1</ele>
        <time>2021-12-19T12:38:50Z</time>
      </trkpt>
      <trkpt lat="44.70915" lon="6.91125">
        <ele>2220.9</ele>
        <time>2021-12-19T12:39:07Z</time>
      </trkpt>
      <trkpt lat="44.70904" lon="6.91127">
        <ele>2223.6</ele>
        <time>2021-12-19T12:39:29Z</time>
      </trkpt>
      <trkpt lat="44.70884" lon="6.91121">
        <ele>2228.9</ele>
        <time>2021-12-19T12:40:09Z</time>
      </trkpt>
      <trkpt lat="44.70868" lon="6.91105">
        <ele>2233.5</ele>
        <time>2021-12-19T12:40:51Z</time>
      </trkpt>
      <trkpt lat="44.70857" lon="6.91103">
        <ele>2236.3</ele>
        <time>2021-12-19T12:41:12Z</time>
      </trkpt>
      <trkpt lat="44.70846" lon="6.91091">
        <ele>2239.5</ele>
        <time>2021-12-19T12:41:39Z</time>
      </trkpt>
      <trkpt lat="44.70838" lon="6.91088">
        <ele>2241.7</ele>
        <time>2021-12-19T12:42:11Z</time>
      </trkpt>
      <trkpt lat="44.70833" lon="6.91103">
        <ele>2242.4</ele>
        <time>2021-12-19T12:42:27Z</time>
      </trkpt>
      <trkpt lat="44.70822" lon="6.91108">
        <ele>2245.4</ele>
        <time>2021-12-19T12:42:47Z</time>
      </trkpt>
      <trkpt lat="44.7081" lon="6.91108">
        <ele>2248.8</ele>
        <time>2021-12-19T12:43:05Z</time>
      </trkpt>
      <trkpt lat="44.70797" lon="6.91107">
        <ele>2252.6</ele>
        <time>2021-12-19T12:43:21Z</time>
      </trkpt>
      <trkpt lat="44.70787" lon="6.91109">
        <ele>2255.4</ele>
        <time>2021-12-19T12:43:49Z</time>
      </trkpt>
      <trkpt lat="44.70781" lon="6.91122">
        <ele>2256.7</ele>
        <time>2021-12-19T12:44:08Z</time>
      </trkpt>
      <trkpt lat="44.7077" lon="6.91123">
        <ele>2259.7</ele>
        <time>2021-12-19T12:44:31Z</time>
      </trkpt>
      <trkpt lat="44.70748" lon="6.91112">
        <ele>2265.6</ele>
        <time>2021-12-19T12:45:06Z</time>
      </trkpt>
      <trkpt lat="44.70738" lon="6.91121">
        <ele>2268.5</ele>
        <time>2021-12-19T12:45:35Z</time>
      </trkpt>
      <trkpt lat="44.70726" lon="6.91149">
        <ele>2271.6</ele>
        <time>2021-12-19T12:46:08Z</time>
      </trkpt>
      <trkpt lat="44.70718" lon="6.91164">
        <ele>2273.3</ele>
        <time>2021-12-19T12:46:22Z</time>
      </trkpt>
      <trkpt lat="44.70697" lon="6.91172">
        <ele>2279.1</ele>
        <time>2021-12-19T12:47:11Z</time>
      </trkpt>
      <trkpt lat="44.70685" lon="6.91169">
        <ele>2282.6</ele>
        <time>2021-12-19T12:47:26Z</time>
      </trkpt>
      <trkpt lat="44.7068" lon="6.91157">
        <ele>2284.3</ele>
        <time>2021-12-19T12:47:48Z</time>
      </trkpt>
      <trkpt lat="44.70671" lon="6.91163">
        <ele>2286.8</ele>
        <time>2021-12-19T12:48:06Z</time>
      </trkpt>
      <trkpt lat="44.70664" lon="6.91174">
        <ele>2288.4</ele>
        <time>2021-12-19T12:48:22Z</time>
      </trkpt>
      <trkpt lat="44.70653" lon="6.91176">
        <ele>2291.3</ele>
        <time>2021-12-19T12:48:45Z</time>
      </trkpt>
      <trkpt lat="44.70642" lon="6.91175">
        <ele>2294.2</ele>
        <time>2021-12-19T12:49:14Z</time>
      </trkpt>
      <trkpt lat="44.70632" lon="6.91166">
        <ele>2297</ele>
        <time>2021-12-19T12:49:34Z</time>
      </trkpt>
      <trkpt lat="44.70626" lon="6.91178">
        <ele>2298.7</ele>
        <time>2021-12-19T12:49:58Z</time>
      </trkpt>
      <trkpt lat="44.70615" lon="6.91185">
        <ele>2301.9</ele>
        <time>2021-12-19T12:50:16Z</time>
      </trkpt>
      <trkpt lat="44.70603" lon="6.91184">
        <ele>2305.4</ele>
        <time>2021-12-19T12:50:29Z</time>
      </trkpt>
      <trkpt lat="44.70594" lon="6.91196">
        <ele>2307.9</ele>
        <time>2021-12-19T12:51:09Z</time>
      </trkpt>
      <trkpt lat="44.70586" lon="6.91202">
        <ele>2310.2</ele>
        <time>2021-12-19T12:51:32Z</time>
      </trkpt>
      <trkpt lat="44.70562" lon="6.91204">
        <ele>2316.9</ele>
        <time>2021-12-19T12:52:00Z</time>
      </trkpt>
      <trkpt lat="44.7055" lon="6.91202">
        <ele>2320.3</ele>
        <time>2021-12-19T12:52:19Z</time>
      </trkpt>
      <trkpt lat="44.70541" lon="6.91213">
        <ele>2322.5</ele>
        <time>2021-12-19T12:52:34Z</time>
      </trkpt>
      <trkpt lat="44.70531" lon="6.91212">
        <ele>2325.4</ele>
        <time>2021-12-19T12:53:03Z</time>
      </trkpt>
      <trkpt lat="44.70522" lon="6.91221">
        <ele>2327.7</ele>
        <time>2021-12-19T12:53:27Z</time>
      </trkpt>
      <trkpt lat="44.7051" lon="6.91231">
        <ele>2331.1</ele>
        <time>2021-12-19T12:53:49Z</time>
      </trkpt>
      <trkpt lat="44.705" lon="6.91239">
        <ele>2334</ele>
        <time>2021-12-19T12:54:10Z</time>
      </trkpt>
      <trkpt lat="44.70491" lon="6.91247">
        <ele>2336.6</ele>
        <time>2021-12-19T12:54:37Z</time>
      </trkpt>
      <trkpt lat="44.70481" lon="6.91269">
        <ele>2339.5</ele>
        <time>2021-12-19T12:54:47Z</time>
      </trkpt>
      <trkpt lat="44.70475" lon="6.91284">
        <ele>2341.2</ele>
        <time>2021-12-19T12:55:12Z</time>
      </trkpt>
      <trkpt lat="44.70471" lon="6.913">
        <ele>2342.3</ele>
        <time>2021-12-19T12:55:28Z</time>
      </trkpt>
      <trkpt lat="44.70463" lon="6.9131">
        <ele>2344.2</ele>
        <time>2021-12-19T12:55:55Z</time>
      </trkpt>
      <trkpt lat="44.70453" lon="6.91305">
        <ele>2346.9</ele>
        <time>2021-12-19T12:56:16Z</time>
      </trkpt>
      <trkpt lat="44.70446" lon="6.91316">
        <ele>2348.6</ele>
        <time>2021-12-19T12:56:42Z</time>
      </trkpt>
      <trkpt lat="44.70439" lon="6.91328">
        <ele>2350.4</ele>
        <time>2021-12-19T12:57:01Z</time>
      </trkpt>
      <trkpt lat="44.70431" lon="6.91338">
        <ele>2352.4</ele>
        <time>2021-12-19T12:57:28Z</time>
      </trkpt>
      <trkpt lat="44.70421" lon="6.91337">
        <ele>2354.9</ele>
        <time>2021-12-19T12:57:59Z</time>
      </trkpt>
      <trkpt lat="44.70402" lon="6.91349">
        <ele>2359.7</ele>
        <time>2021-12-19T12:59:28Z</time>
      </trkpt>
      <trkpt lat="44.70392" lon="6.91353">
        <ele>2362.2</ele>
        <time>2021-12-19T12:59:40Z</time>
      </trkpt>
      <trkpt lat="44.70374" lon="6.91378">
        <ele>2367.9</ele>
        <time>2021-12-19T13:00:39Z</time>
      </trkpt>
      <trkpt lat="44.70363" lon="6.91372">
        <ele>2370.8</ele>
        <time>2021-12-19T13:01:01Z</time>
      </trkpt>
      <trkpt lat="44.70355" lon="6.91376">
        <ele>2373.9</ele>
        <time>2021-12-19T13:01:28Z</time>
      </trkpt>
      <trkpt lat="44.70345" lon="6.91366">
        <ele>2377.1</ele>
        <time>2021-12-19T13:01:54Z</time>
      </trkpt>
      <trkpt lat="44.70336" lon="6.91372">
        <ele>2380.8</ele>
        <time>2021-12-19T13:02:18Z</time>
      </trkpt>
      <trkpt lat="44.70327" lon="6.91379">
        <ele>2384.7</ele>
        <time>2021-12-19T13:02:42Z</time>
      </trkpt>
      <trkpt lat="44.70318" lon="6.9139">
        <ele>2389.1</ele>
        <time>2021-12-19T13:03:53Z</time>
      </trkpt>
      <trkpt lat="44.70311" lon="6.914">
        <ele>2392.3</ele>
        <time>2021-12-19T13:06:20Z</time>
      </trkpt>
      <trkpt lat="44.70301" lon="6.91399">
        <ele>2396</ele>
        <time>2021-12-19T13:06:42Z</time>
      </trkpt>
      <trkpt lat="44.70306" lon="6.9141">
        <ele>2394.6</ele>
        <time>2021-12-19T13:07:03Z</time>
      </trkpt>
      <trkpt lat="44.70301" lon="6.91423">
        <ele>2397.1</ele>
        <time>2021-12-19T13:07:29Z</time>
      </trkpt>
      <trkpt lat="44.70292" lon="6.91435">
        <ele>2401.2</ele>
        <time>2021-12-19T13:07:48Z</time>
      </trkpt>
      <trkpt lat="44.70282" lon="6.91443">
        <ele>2405.4</ele>
        <time>2021-12-19T13:08:15Z</time>
      </trkpt>
      <trkpt lat="44.7027" lon="6.91441">
        <ele>2409.3</ele>
        <time>2021-12-19T13:08:39Z</time>
      </trkpt>
      <trkpt lat="44.70259" lon="6.91443">
        <ele>2413</ele>
        <time>2021-12-19T13:09:10Z</time>
      </trkpt>
      <trkpt lat="44.70248" lon="6.91444">
        <ele>2416.6</ele>
        <time>2021-12-19T13:09:29Z</time>
      </trkpt>
      <trkpt lat="44.70238" lon="6.91452">
        <ele>2418.6</ele>
        <time>2021-12-19T13:09:43Z</time>
      </trkpt>
      <trkpt lat="44.70228" lon="6.91458">
        <ele>2420.9</ele>
        <time>2021-12-19T13:10:02Z</time>
      </trkpt>
      <trkpt lat="44.70208" lon="6.91472">
        <ele>2425.6</ele>
        <time>2021-12-19T13:10:49Z</time>
      </trkpt>
      <trkpt lat="44.70197" lon="6.91477">
        <ele>2428.3</ele>
        <time>2021-12-19T13:11:05Z</time>
      </trkpt>
      <trkpt lat="44.70187" lon="6.91481">
        <ele>2430.8</ele>
        <time>2021-12-19T13:11:23Z</time>
      </trkpt>
      <trkpt lat="44.70177" lon="6.91477">
        <ele>2434.8</ele>
        <time>2021-12-19T13:12:02Z</time>
      </trkpt>
      <trkpt lat="44.70166" lon="6.91478">
        <ele>2438.2</ele>
        <time>2021-12-19T13:12:16Z</time>
      </trkpt>
      <trkpt lat="44.70155" lon="6.91484">
        <ele>2440.4</ele>
        <time>2021-12-19T13:12:34Z</time>
      </trkpt>
      <trkpt lat="44.70147" lon="6.91495">
        <ele>2441.1</ele>
        <time>2021-12-19T13:12:58Z</time>
      </trkpt>
      <trkpt lat="44.70135" lon="6.91496">
        <ele>2444.6</ele>
        <time>2021-12-19T13:13:17Z</time>
      </trkpt>
      <trkpt lat="44.70124" lon="6.915">
        <ele>2446.8</ele>
        <time>2021-12-19T13:13:30Z</time>
      </trkpt>
      <trkpt lat="44.70115" lon="6.91511">
        <ele>2447.4</ele>
        <time>2021-12-19T13:13:46Z</time>
      </trkpt>
      <trkpt lat="44.70105" lon="6.91515">
        <ele>2449.7</ele>
        <time>2021-12-19T13:14:05Z</time>
      </trkpt>
      <trkpt lat="44.70088" lon="6.91532">
        <ele>2451.9</ele>
        <time>2021-12-19T13:14:47Z</time>
      </trkpt>
      <trkpt lat="44.70069" lon="6.91547">
        <ele>2455</ele>
        <time>2021-12-19T13:15:17Z</time>
      </trkpt>
      <trkpt lat="44.70059" lon="6.91556">
        <ele>2456.8</ele>
        <time>2021-12-19T13:15:31Z</time>
      </trkpt>
      <trkpt lat="44.70053" lon="6.9157">
        <ele>2455.8</ele>
        <time>2021-12-19T13:15:58Z</time>
      </trkpt>
      <trkpt lat="44.70037" lon="6.91588">
        <ele>2458.5</ele>
        <time>2021-12-19T13:16:35Z</time>
      </trkpt>
      <trkpt lat="44.7002" lon="6.91608">
        <ele>2461.7</ele>
        <time>2021-12-19T13:17:08Z</time>
      </trkpt>
      <trkpt lat="44.70011" lon="6.91619">
        <ele>2463.4</ele>
        <time>2021-12-19T13:17:39Z</time>
      </trkpt>
      <trkpt lat="44.70002" lon="6.91629">
        <ele>2465.1</ele>
        <time>2021-12-19T13:18:11Z</time>
      </trkpt>
      <trkpt lat="44.69986" lon="6.9165">
        <ele>2467.3</ele>
        <time>2021-12-19T13:19:15Z</time>
      </trkpt>
      <trkpt lat="44.6998" lon="6.91661">
        <ele>2468.1</ele>
        <time>2021-12-19T13:19:43Z</time>
      </trkpt>
      <trkpt lat="44.6997" lon="6.91666">
        <ele>2470.8</ele>
        <time>2021-12-19T13:20:09Z</time>
      </trkpt>
      <trkpt lat="44.69961" lon="6.91674">
        <ele>2473.3</ele>
        <time>2021-12-19T13:20:29Z</time>
      </trkpt>
      <trkpt lat="44.69951" lon="6.91679">
        <ele>2476.7</ele>
        <time>2021-12-19T13:20:51Z</time>
      </trkpt>
      <trkpt lat="44.6994" lon="6.91681">
        <ele>2481</ele>
        <time>2021-12-19T13:21:24Z</time>
      </trkpt>
      <trkpt lat="44.69929" lon="6.9168">
        <ele>2486</ele>
        <time>2021-12-19T13:21:59Z</time>
      </trkpt>
      <trkpt lat="44.69918" lon="6.91681">
        <ele>2490.9</ele>
        <time>2021-12-19T13:22:19Z</time>
      </trkpt>
      <trkpt lat="44.69915" lon="6.91693">
        <ele>2490.9</ele>
        <time>2021-12-19T13:22:54Z</time>
      </trkpt>
      <trkpt lat="44.69907" lon="6.91687">
        <ele>2495.2</ele>
        <time>2021-12-19T13:24:07Z</time>
      </trkpt>
      <trkpt lat="44.69904" lon="6.91677">
        <ele>2497.9</ele>
        <time>2021-12-19T13:24:12Z</time>
      </trkpt>
      <trkpt lat="44.69888" lon="6.91654">
        <ele>2509.6</ele>
        <time>2021-12-19T13:24:44Z</time>
      </trkpt>
      <trkpt lat="44.69867" lon="6.91656">
        <ele>2517.6</ele>
        <time>2021-12-19T13:25:55Z</time>
      </trkpt>
      <trkpt lat="44.69856" lon="6.91656">
        <ele>2522.1</ele>
        <time>2021-12-19T13:26:28Z</time>
      </trkpt>
      <trkpt lat="44.69845" lon="6.9166">
        <ele>2526.2</ele>
        <time>2021-12-19T13:26:51Z</time>
      </trkpt>
      <trkpt lat="44.69835" lon="6.91665">
        <ele>2529.6</ele>
        <time>2021-12-19T13:27:20Z</time>
      </trkpt>
      <trkpt lat="44.69826" lon="6.91672">
        <ele>2532.4</ele>
        <time>2021-12-19T13:27:46Z</time>
      </trkpt>
      <trkpt lat="44.69806" lon="6.91678">
        <ele>2540.4</ele>
        <time>2021-12-19T13:28:41Z</time>
      </trkpt>
      <trkpt lat="44.69796" lon="6.91683">
        <ele>2543.4</ele>
        <time>2021-12-19T13:29:11Z</time>
      </trkpt>
      <trkpt lat="44.69777" lon="6.917">
        <ele>2546.9</ele>
        <time>2021-12-19T13:29:59Z</time>
      </trkpt>
      <trkpt lat="44.69757" lon="6.91702">
        <ele>2553.4</ele>
        <time>2021-12-19T13:31:04Z</time>
      </trkpt>
      <trkpt lat="44.69736" lon="6.91705">
        <ele>2560</ele>
        <time>2021-12-19T13:31:44Z</time>
      </trkpt>
      <trkpt lat="44.69726" lon="6.91702">
        <ele>2564.5</ele>
        <time>2021-12-19T13:32:08Z</time>
      </trkpt>
      <trkpt lat="44.69717" lon="6.9171">
        <ele>2565.6</ele>
        <time>2021-12-19T13:32:34Z</time>
      </trkpt>
      <trkpt lat="44.69704" lon="6.91708">
        <ele>2571.3</ele>
        <time>2021-12-19T13:32:55Z</time>
      </trkpt>
      <trkpt lat="44.697" lon="6.91707">
        <ele>2573.2</ele>
        <time>2021-12-19T13:43:27Z</time>
      </trkpt>
      <trkpt lat="44.69691" lon="6.91702">
        <ele>2577.9</ele>
        <time>2021-12-19T13:44:03Z</time>
      </trkpt>
      <trkpt lat="44.69671" lon="6.91701">
        <ele>2584.7</ele>
        <time>2021-12-19T13:44:46Z</time>
      </trkpt>
      <trkpt lat="44.6966" lon="6.91698">
        <ele>2589.3</ele>
        <time>2021-12-19T13:44:59Z</time>
      </trkpt>
      <trkpt lat="44.6962" lon="6.91704">
        <ele>2600.1</ele>
        <time>2021-12-19T13:45:39Z</time>
      </trkpt>
      <trkpt lat="44.69597" lon="6.91708">
        <ele>2605.7</ele>
        <time>2021-12-19T13:46:09Z</time>
      </trkpt>
      <trkpt lat="44.69574" lon="6.91707">
        <ele>2614</ele>
        <time>2021-12-19T13:46:55Z</time>
      </trkpt>
      <trkpt lat="44.69563" lon="6.91706">
        <ele>2618.6</ele>
        <time>2021-12-19T13:47:20Z</time>
      </trkpt>
      <trkpt lat="44.69554" lon="6.91717">
        <ele>2617.7</ele>
        <time>2021-12-19T13:47:46Z</time>
      </trkpt>
      <trkpt lat="44.69547" lon="6.9173">
        <ele>2615.8</ele>
        <time>2021-12-19T13:48:08Z</time>
      </trkpt>
      <trkpt lat="44.6954" lon="6.91741">
        <ele>2615.5</ele>
        <time>2021-12-19T13:48:38Z</time>
      </trkpt>
      <trkpt lat="44.69531" lon="6.91747">
        <ele>2618.2</ele>
        <time>2021-12-19T13:48:58Z</time>
      </trkpt>
      <trkpt lat="44.69519" lon="6.91751">
        <ele>2623.1</ele>
        <time>2021-12-19T13:49:28Z</time>
      </trkpt>
      <trkpt lat="44.69509" lon="6.91754">
        <ele>2627.2</ele>
        <time>2021-12-19T13:49:44Z</time>
      </trkpt>
      <trkpt lat="44.69487" lon="6.91767">
        <ele>2633.3</ele>
        <time>2021-12-19T13:50:30Z</time>
      </trkpt>
      <trkpt lat="44.69478" lon="6.91765">
        <ele>2638.5</ele>
        <time>2021-12-19T13:50:50Z</time>
      </trkpt>
      <trkpt lat="44.69466" lon="6.91766">
        <ele>2644.2</ele>
        <time>2021-12-19T13:51:06Z</time>
      </trkpt>
      <trkpt lat="44.69454" lon="6.91772">
        <ele>2646.6</ele>
        <time>2021-12-19T13:51:26Z</time>
      </trkpt>
      <trkpt lat="44.69442" lon="6.91775">
        <ele>2650.7</ele>
        <time>2021-12-19T13:51:38Z</time>
      </trkpt>
      <trkpt lat="44.69422" lon="6.91785">
        <ele>2655.9</ele>
        <time>2021-12-19T13:52:13Z</time>
      </trkpt>
      <trkpt lat="44.69411" lon="6.91792">
        <ele>2657.1</ele>
        <time>2021-12-19T13:52:31Z</time>
      </trkpt>
      <trkpt lat="44.69401" lon="6.91795">
        <ele>2659.3</ele>
        <time>2021-12-19T13:52:57Z</time>
      </trkpt>
      <trkpt lat="44.69392" lon="6.91801">
        <ele>2659.4</ele>
        <time>2021-12-19T13:53:31Z</time>
      </trkpt>
      <trkpt lat="44.69383" lon="6.91805">
        <ele>2659.8</ele>
        <time>2021-12-19T13:54:05Z</time>
      </trkpt>
      <trkpt lat="44.69373" lon="6.9181">
        <ele>2660.2</ele>
        <time>2021-12-19T13:54:26Z</time>
      </trkpt>
      <trkpt lat="44.69366" lon="6.9182">
        <ele>2657.6</ele>
        <time>2021-12-19T13:54:44Z</time>
      </trkpt>
      <trkpt lat="44.69345" lon="6.91833">
        <ele>2657.9</ele>
        <time>2021-12-19T13:55:13Z</time>
      </trkpt>
      <trkpt lat="44.69323" lon="6.91849">
        <ele>2661</ele>
        <time>2021-12-19T13:55:50Z</time>
      </trkpt>
      <trkpt lat="44.69313" lon="6.91847">
        <ele>2668.5</ele>
        <time>2021-12-19T13:56:04Z</time>
      </trkpt>
      <trkpt lat="44.69301" lon="6.91851">
        <ele>2673.3</ele>
        <time>2021-12-19T13:56:38Z</time>
      </trkpt>
      <trkpt lat="44.69288" lon="6.91849">
        <ele>2685.2</ele>
        <time>2021-12-19T13:56:59Z</time>
      </trkpt>
      <trkpt lat="44.69279" lon="6.91853">
        <ele>2688.2</ele>
        <time>2021-12-19T13:57:47Z</time>
      </trkpt>
      <trkpt lat="44.69263" lon="6.9187">
        <ele>2690.1</ele>
        <time>2021-12-19T13:58:28Z</time>
      </trkpt>
      <trkpt lat="44.69251" lon="6.91872">
        <ele>2699.5</ele>
        <time>2021-12-19T13:58:48Z</time>
      </trkpt>
      <trkpt lat="44.69229" lon="6.91881">
        <ele>2717.5</ele>
        <time>2021-12-19T13:59:29Z</time>
      </trkpt>
      <trkpt lat="44.69218" lon="6.91888">
        <ele>2722.8</ele>
        <time>2021-12-19T13:59:46Z</time>
      </trkpt>
      <trkpt lat="44.6921" lon="6.91899">
        <ele>2721.8</ele>
        <time>2021-12-19T14:00:01Z</time>
      </trkpt>
      <trkpt lat="44.69211" lon="6.91913">
        <ele>2714.1</ele>
        <time>2021-12-19T14:00:29Z</time>
      </trkpt>
      <trkpt lat="44.69199" lon="6.91989">
        <ele>2681.3</ele>
        <time>2021-12-19T14:01:23Z</time>
      </trkpt>
      <trkpt lat="44.69193" lon="6.92002">
        <ele>2679</ele>
        <time>2021-12-19T14:02:26Z</time>
      </trkpt>
      <trkpt lat="44.69187" lon="6.9199">
        <ele>2686.8</ele>
        <time>2021-12-19T14:03:11Z</time>
      </trkpt>
      <trkpt lat="44.69121" lon="6.92011">
        <ele>2697.2</ele>
        <time>2021-12-19T14:57:34Z</time>
      </trkpt>
      <trkpt lat="44.69069" lon="6.92042">
        <ele>2693</ele>
        <time>2021-12-19T14:59:06Z</time>
      </trkpt>
      <trkpt lat="44.69051" lon="6.92047">
        <ele>2691.8</ele>
        <time>2021-12-19T14:59:47Z</time>
      </trkpt>
      <trkpt lat="44.69038" lon="6.92088">
        <ele>2693.7</ele>
        <time>2021-12-19T15:00:04Z</time>
      </trkpt>
      <trkpt lat="44.6903" lon="6.92151">
        <ele>2704.8</ele>
        <time>2021-12-19T15:00:30Z</time>
      </trkpt>
      <trkpt lat="44.69044" lon="6.92126">
        <ele>2703.5</ele>
        <time>2021-12-19T15:01:07Z</time>
      </trkpt>
      <trkpt lat="44.69048" lon="6.92107">
        <ele>2700.4</ele>
        <time>2021-12-19T15:01:17Z</time>
      </trkpt>
      <trkpt lat="44.69054" lon="6.92062">
        <ele>2693.5</ele>
        <time>2021-12-19T15:01:40Z</time>
      </trkpt>
      <trkpt lat="44.69065" lon="6.92063">
        <ele>2695</ele>
        <time>2021-12-19T15:01:51Z</time>
      </trkpt>
      <trkpt lat="44.69079" lon="6.92061">
        <ele>2696</ele>
        <time>2021-12-19T15:02:05Z</time>
      </trkpt>
      <trkpt lat="44.69085" lon="6.92058">
        <ele>2695.8</ele>
        <time>2021-12-19T15:02:10Z</time>
      </trkpt>
      <trkpt lat="44.69094" lon="6.92051">
        <ele>2695.5</ele>
        <time>2021-12-19T15:02:20Z</time>
      </trkpt>
      <trkpt lat="44.69104" lon="6.92045">
        <ele>2695.7</ele>
        <time>2021-12-19T15:02:27Z</time>
      </trkpt>
      <trkpt lat="44.69108" lon="6.92029">
        <ele>2693.8</ele>
        <time>2021-12-19T15:02:41Z</time>
      </trkpt>
      <trkpt lat="44.69105" lon="6.92014">
        <ele>2694.5</ele>
        <time>2021-12-19T15:02:57Z</time>
      </trkpt>
      <trkpt lat="44.69097" lon="6.92003">
        <ele>2693.8</ele>
        <time>2021-12-19T15:03:01Z</time>
      </trkpt>
      <trkpt lat="44.69085" lon="6.91979">
        <ele>2691.5</ele>
        <time>2021-12-19T15:03:14Z</time>
      </trkpt>
      <trkpt lat="44.6908" lon="6.91962">
        <ele>2690.7</ele>
        <time>2021-12-19T15:03:20Z</time>
      </trkpt>
      <trkpt lat="44.69079" lon="6.91948">
        <ele>2690</ele>
        <time>2021-12-19T15:03:28Z</time>
      </trkpt>
      <trkpt lat="44.6908" lon="6.91933">
        <ele>2688.4</ele>
        <time>2021-12-19T15:03:34Z</time>
      </trkpt>
      <trkpt lat="44.6909" lon="6.9194">
        <ele>2692.2</ele>
        <time>2021-12-19T15:03:40Z</time>
      </trkpt>
      <trkpt lat="44.69097" lon="6.91932">
        <ele>2694.3</ele>
        <time>2021-12-19T15:03:47Z</time>
      </trkpt>
      <trkpt lat="44.69104" lon="6.919">
        <ele>2693.4</ele>
        <time>2021-12-19T15:04:08Z</time>
      </trkpt>
      <trkpt lat="44.69106" lon="6.9187">
        <ele>2689</ele>
        <time>2021-12-19T15:04:14Z</time>
      </trkpt>
      <trkpt lat="44.69108" lon="6.9186">
        <ele>2688.1</ele>
        <time>2021-12-19T15:04:20Z</time>
      </trkpt>
      <trkpt lat="44.69115" lon="6.91805">
        <ele>2680.4</ele>
        <time>2021-12-19T15:04:28Z</time>
      </trkpt>
      <trkpt lat="44.69117" lon="6.91785">
        <ele>2678.9</ele>
        <time>2021-12-19T15:04:32Z</time>
      </trkpt>
      <trkpt lat="44.69117" lon="6.91773">
        <ele>2677.3</ele>
        <time>2021-12-19T15:04:34Z</time>
      </trkpt>
      <trkpt lat="44.69117" lon="6.91751">
        <ele>2674.7</ele>
        <time>2021-12-19T15:04:39Z</time>
      </trkpt>
      <trkpt lat="44.69119" lon="6.91733">
        <ele>2674.9</ele>
        <time>2021-12-19T15:05:38Z</time>
      </trkpt>
      <trkpt lat="44.69119" lon="6.91718">
        <ele>2673.8</ele>
        <time>2021-12-19T15:05:41Z</time>
      </trkpt>
      <trkpt lat="44.69121" lon="6.91706">
        <ele>2673.8</ele>
        <time>2021-12-19T15:05:59Z</time>
      </trkpt>
      <trkpt lat="44.69115" lon="6.91663">
        <ele>2666.4</ele>
        <time>2021-12-19T15:06:08Z</time>
      </trkpt>
      <trkpt lat="44.69105" lon="6.91668">
        <ele>2660.8</ele>
        <time>2021-12-19T15:06:33Z</time>
      </trkpt>
      <trkpt lat="44.69093" lon="6.91691">
        <ele>2656.8</ele>
        <time>2021-12-19T15:07:27Z</time>
      </trkpt>
      <trkpt lat="44.69097" lon="6.91704">
        <ele>2660.1</ele>
        <time>2021-12-19T15:09:09Z</time>
      </trkpt>
      <trkpt lat="44.69104" lon="6.91707">
        <ele>2664.3</ele>
        <time>2021-12-19T15:13:22Z</time>
      </trkpt>
      <trkpt lat="44.69083" lon="6.91591">
        <ele>2648.1</ele>
        <time>2021-12-19T15:13:52Z</time>
      </trkpt>
      <trkpt lat="44.69077" lon="6.9157">
        <ele>2646.3</ele>
        <time>2021-12-19T15:13:57Z</time>
      </trkpt>
      <trkpt lat="44.69064" lon="6.91547">
        <ele>2641.3</ele>
        <time>2021-12-19T15:14:32Z</time>
      </trkpt>
      <trkpt lat="44.69056" lon="6.91558">
        <ele>2638.1</ele>
        <time>2021-12-19T15:14:35Z</time>
      </trkpt>
      <trkpt lat="44.69054" lon="6.9157">
        <ele>2637</ele>
        <time>2021-12-19T15:14:39Z</time>
      </trkpt>
      <trkpt lat="44.69036" lon="6.91619">
        <ele>2630.4</ele>
        <time>2021-12-19T15:15:07Z</time>
      </trkpt>
      <trkpt lat="44.69028" lon="6.91632">
        <ele>2628.1</ele>
        <time>2021-12-19T15:15:12Z</time>
      </trkpt>
      <trkpt lat="44.6902" lon="6.91625">
        <ele>2626.6</ele>
        <time>2021-12-19T15:15:17Z</time>
      </trkpt>
      <trkpt lat="44.69015" lon="6.9161">
        <ele>2625.7</ele>
        <time>2021-12-19T15:15:21Z</time>
      </trkpt>
      <trkpt lat="44.69009" lon="6.91602">
        <ele>2624.5</ele>
        <time>2021-12-19T15:15:25Z</time>
      </trkpt>
      <trkpt lat="44.69002" lon="6.91599">
        <ele>2623</ele>
        <time>2021-12-19T15:17:20Z</time>
      </trkpt>
      <trkpt lat="44.68975" lon="6.91602">
        <ele>2619.1</ele>
        <time>2021-12-19T15:17:27Z</time>
      </trkpt>
      <trkpt lat="44.68963" lon="6.91607">
        <ele>2616.5</ele>
        <time>2021-12-19T15:17:31Z</time>
      </trkpt>
      <trkpt lat="44.68953" lon="6.91615">
        <ele>2614.2</ele>
        <time>2021-12-19T15:17:37Z</time>
      </trkpt>
      <trkpt lat="44.6894" lon="6.91626">
        <ele>2611.8</ele>
        <time>2021-12-19T15:17:41Z</time>
      </trkpt>
      <trkpt lat="44.68936" lon="6.91633">
        <ele>2611.5</ele>
        <time>2021-12-19T15:17:44Z</time>
      </trkpt>
      <trkpt lat="44.68928" lon="6.91605">
        <ele>2606.1</ele>
        <time>2021-12-19T15:18:00Z</time>
      </trkpt>
      <trkpt lat="44.68929" lon="6.91598">
        <ele>2606.1</ele>
        <time>2021-12-19T15:21:42Z</time>
      </trkpt>
      <trkpt lat="44.68926" lon="6.91598">
        <ele>2605.4</ele>
        <time>2021-12-19T15:22:48Z</time>
      </trkpt>
      <trkpt lat="44.68897" lon="6.91585">
        <ele>2600.1</ele>
        <time>2021-12-19T15:22:56Z</time>
      </trkpt>
      <trkpt lat="44.68889" lon="6.91578">
        <ele>2598.6</ele>
        <time>2021-12-19T15:22:58Z</time>
      </trkpt>
      <trkpt lat="44.68853" lon="6.91527">
        <ele>2591.2</ele>
        <time>2021-12-19T15:23:18Z</time>
      </trkpt>
      <trkpt lat="44.68809" lon="6.91487">
        <ele>2584</ele>
        <time>2021-12-19T15:23:29Z</time>
      </trkpt>
      <trkpt lat="44.68795" lon="6.91469">
        <ele>2582.2</ele>
        <time>2021-12-19T15:23:37Z</time>
      </trkpt>
      <trkpt lat="44.68789" lon="6.91452">
        <ele>2581.5</ele>
        <time>2021-12-19T15:25:05Z</time>
      </trkpt>
      <trkpt lat="44.68789" lon="6.91439">
        <ele>2582.1</ele>
        <time>2021-12-19T15:26:00Z</time>
      </trkpt>
      <trkpt lat="44.68784" lon="6.91422">
        <ele>2580.4</ele>
        <time>2021-12-19T15:26:04Z</time>
      </trkpt>
      <trkpt lat="44.68782" lon="6.91411">
        <ele>2579.4</ele>
        <time>2021-12-19T15:26:06Z</time>
      </trkpt>
      <trkpt lat="44.68777" lon="6.91382">
        <ele>2577.2</ele>
        <time>2021-12-19T15:26:18Z</time>
      </trkpt>
      <trkpt lat="44.68768" lon="6.91372">
        <ele>2577.5</ele>
        <time>2021-12-19T15:26:37Z</time>
      </trkpt>
      <trkpt lat="44.68761" lon="6.91386">
        <ele>2576.1</ele>
        <time>2021-12-19T15:26:59Z</time>
      </trkpt>
      <trkpt lat="44.68741" lon="6.914">
        <ele>2573.5</ele>
        <time>2021-12-19T15:27:32Z</time>
      </trkpt>
      <trkpt lat="44.68729" lon="6.914">
        <ele>2573</ele>
        <time>2021-12-19T15:28:16Z</time>
      </trkpt>
      <trkpt lat="44.68681" lon="6.91366">
        <ele>2569</ele>
        <time>2021-12-19T15:28:34Z</time>
      </trkpt>
      <trkpt lat="44.68671" lon="6.91359">
        <ele>2567.9</ele>
        <time>2021-12-19T15:28:38Z</time>
      </trkpt>
      <trkpt lat="44.68661" lon="6.91352">
        <ele>2566.8</ele>
        <time>2021-12-19T15:28:47Z</time>
      </trkpt>
      <trkpt lat="44.68638" lon="6.91363">
        <ele>2563.7</ele>
        <time>2021-12-19T15:28:55Z</time>
      </trkpt>
      <trkpt lat="44.68622" lon="6.91384">
        <ele>2559.8</ele>
        <time>2021-12-19T15:29:25Z</time>
      </trkpt>
      <trkpt lat="44.68602" lon="6.91409">
        <ele>2556.3</ele>
        <time>2021-12-19T15:29:34Z</time>
      </trkpt>
      <trkpt lat="44.68591" lon="6.91421">
        <ele>2555</ele>
        <time>2021-12-19T15:29:38Z</time>
      </trkpt>
      <trkpt lat="44.6858" lon="6.9143">
        <ele>2554.1</ele>
        <time>2021-12-19T15:29:42Z</time>
      </trkpt>
      <trkpt lat="44.68571" lon="6.91434">
        <ele>2553.5</ele>
        <time>2021-12-19T15:29:46Z</time>
      </trkpt>
      <trkpt lat="44.68563" lon="6.91438">
        <ele>2553.1</ele>
        <time>2021-12-19T15:30:19Z</time>
      </trkpt>
      <trkpt lat="44.68554" lon="6.91434">
        <ele>2551.5</ele>
        <time>2021-12-19T15:30:25Z</time>
      </trkpt>
      <trkpt lat="44.68547" lon="6.9145">
        <ele>2550.5</ele>
        <time>2021-12-19T15:30:33Z</time>
      </trkpt>
      <trkpt lat="44.68549" lon="6.91473">
        <ele>2550.8</ele>
        <time>2021-12-19T15:30:37Z</time>
      </trkpt>
      <trkpt lat="44.68547" lon="6.91486">
        <ele>2549.5</ele>
        <time>2021-12-19T15:30:39Z</time>
      </trkpt>
      <trkpt lat="44.68542" lon="6.91497">
        <ele>2547.7</ele>
        <time>2021-12-19T15:30:41Z</time>
      </trkpt>
      <trkpt lat="44.68533" lon="6.91521">
        <ele>2545.9</ele>
        <time>2021-12-19T15:30:45Z</time>
      </trkpt>
      <trkpt lat="44.68495" lon="6.91573">
        <ele>2536.1</ele>
        <time>2021-12-19T15:31:09Z</time>
      </trkpt>
      <trkpt lat="44.68482" lon="6.91585">
        <ele>2532.1</ele>
        <time>2021-12-19T15:31:18Z</time>
      </trkpt>
      <trkpt lat="44.68469" lon="6.91589">
        <ele>2529.2</ele>
        <time>2021-12-19T15:31:22Z</time>
      </trkpt>
      <trkpt lat="44.68458" lon="6.91583">
        <ele>2527.5</ele>
        <time>2021-12-19T15:31:26Z</time>
      </trkpt>
      <trkpt lat="44.68443" lon="6.9156">
        <ele>2525.5</ele>
        <time>2021-12-19T15:31:43Z</time>
      </trkpt>
      <trkpt lat="44.68432" lon="6.91544">
        <ele>2524.4</ele>
        <time>2021-12-19T15:32:31Z</time>
      </trkpt>
      <trkpt lat="44.68424" lon="6.9153">
        <ele>2523.7</ele>
        <time>2021-12-19T15:32:36Z</time>
      </trkpt>
      <trkpt lat="44.68421" lon="6.91521">
        <ele>2523.3</ele>
        <time>2021-12-19T15:32:53Z</time>
      </trkpt>
      <trkpt lat="44.68413" lon="6.91495">
        <ele>2521.4</ele>
        <time>2021-12-19T15:33:05Z</time>
      </trkpt>
      <trkpt lat="44.68398" lon="6.91451">
        <ele>2516.1</ele>
        <time>2021-12-19T15:33:23Z</time>
      </trkpt>
      <trkpt lat="44.68405" lon="6.91436">
        <ele>2515.7</ele>
        <time>2021-12-19T15:33:28Z</time>
      </trkpt>
      <trkpt lat="44.68409" lon="6.91422">
        <ele>2514.2</ele>
        <time>2021-12-19T15:33:30Z</time>
      </trkpt>
      <trkpt lat="44.68408" lon="6.91406">
        <ele>2513</ele>
        <time>2021-12-19T15:33:33Z</time>
      </trkpt>
      <trkpt lat="44.68392" lon="6.91384">
        <ele>2510.9</ele>
        <time>2021-12-19T15:35:54Z</time>
      </trkpt>
      <trkpt lat="44.68377" lon="6.91389">
        <ele>2511</ele>
        <time>2021-12-19T15:36:16Z</time>
      </trkpt>
      <trkpt lat="44.68278" lon="6.91372">
        <ele>2497.6</ele>
        <time>2021-12-19T15:36:37Z</time>
      </trkpt>
      <trkpt lat="44.68265" lon="6.91368">
        <ele>2494.6</ele>
        <time>2021-12-19T15:36:53Z</time>
      </trkpt>
      <trkpt lat="44.68265" lon="6.91368">
        <ele>2494.6</ele>
        <time>2021-12-19T15:38:50Z</time>
      </trkpt>
      <trkpt lat="44.68271" lon="6.91377">
        <ele>2496.9</ele>
        <time>2021-12-19T15:39:25Z</time>
      </trkpt>
      <trkpt lat="44.68265" lon="6.91371">
        <ele>2495</ele>
        <time>2021-12-19T15:39:51Z</time>
      </trkpt>
      <trkpt lat="44.68265" lon="6.91372">
        <ele>2495.1</ele>
        <time>2021-12-19T15:42:46Z</time>
      </trkpt>
      <trkpt lat="44.68262" lon="6.91369">
        <ele>2494.1</ele>
        <time>2021-12-19T15:44:23Z</time>
      </trkpt>
      <trkpt lat="44.68261" lon="6.91378">
        <ele>2495</ele>
        <time>2021-12-19T15:47:11Z</time>
      </trkpt>
      <trkpt lat="44.68254" lon="6.9138">
        <ele>2493.9</ele>
        <time>2021-12-19T15:47:16Z</time>
      </trkpt>
      <trkpt lat="44.68251" lon="6.91374">
        <ele>2492.6</ele>
        <time>2021-12-19T15:47:40Z</time>
      </trkpt>
      <trkpt lat="44.68255" lon="6.91365">
        <ele>2492.3</ele>
        <time>2021-12-19T15:47:42Z</time>
      </trkpt>
      <trkpt lat="44.6826" lon="6.91346">
        <ele>2491.5</ele>
        <time>2021-12-19T15:47:46Z</time>
      </trkpt>
      <trkpt lat="44.6826" lon="6.91333">
        <ele>2490.4</ele>
        <time>2021-12-19T15:47:48Z</time>
      </trkpt>
      <trkpt lat="44.68253" lon="6.91318">
        <ele>2487.1</ele>
        <time>2021-12-19T15:47:51Z</time>
      </trkpt>
      <trkpt lat="44.68226" lon="6.91378">
        <ele>2489.4</ele>
        <time>2021-12-19T15:48:03Z</time>
      </trkpt>
      <trkpt lat="44.68216" lon="6.91372">
        <ele>2487.3</ele>
        <time>2021-12-19T15:48:23Z</time>
      </trkpt>
      <trkpt lat="44.68215" lon="6.91349">
        <ele>2485.7</ele>
        <time>2021-12-19T15:48:37Z</time>
      </trkpt>
      <trkpt lat="44.68219" lon="6.91319">
        <ele>2484</ele>
        <time>2021-12-19T15:49:08Z</time>
      </trkpt>
      <trkpt lat="44.68219" lon="6.91304">
        <ele>2482.4</ele>
        <time>2021-12-19T15:49:26Z</time>
      </trkpt>
      <trkpt lat="44.68228" lon="6.91273">
        <ele>2478.9</ele>
        <time>2021-12-19T15:49:34Z</time>
      </trkpt>
      <trkpt lat="44.68224" lon="6.91257">
        <ele>2476.9</ele>
        <time>2021-12-19T15:49:38Z</time>
      </trkpt>
      <trkpt lat="44.68216" lon="6.91255">
        <ele>2475.3</ele>
        <time>2021-12-19T15:49:45Z</time>
      </trkpt>
      <trkpt lat="44.68207" lon="6.91264">
        <ele>2475.1</ele>
        <time>2021-12-19T15:49:55Z</time>
      </trkpt>
      <trkpt lat="44.68167" lon="6.91278">
        <ele>2471.1</ele>
        <time>2021-12-19T15:50:19Z</time>
      </trkpt>
      <trkpt lat="44.68159" lon="6.91284">
        <ele>2469.5</ele>
        <time>2021-12-19T15:50:55Z</time>
      </trkpt>
      <trkpt lat="44.68151" lon="6.91275">
        <ele>2466.8</ele>
        <time>2021-12-19T15:51:02Z</time>
      </trkpt>
      <trkpt lat="44.68141" lon="6.91222">
        <ele>2462.2</ele>
        <time>2021-12-19T15:51:26Z</time>
      </trkpt>
      <trkpt lat="44.68147" lon="6.91214">
        <ele>2461.8</ele>
        <time>2021-12-19T15:51:36Z</time>
      </trkpt>
      <trkpt lat="44.68156" lon="6.91203">
        <ele>2461.5</ele>
        <time>2021-12-19T15:51:42Z</time>
      </trkpt>
      <trkpt lat="44.68163" lon="6.91193">
        <ele>2461.2</ele>
        <time>2021-12-19T15:51:46Z</time>
      </trkpt>
      <trkpt lat="44.68168" lon="6.91182">
        <ele>2460</ele>
        <time>2021-12-19T15:51:50Z</time>
      </trkpt>
      <trkpt lat="44.68183" lon="6.91158">
        <ele>2458.3</ele>
        <time>2021-12-19T15:51:58Z</time>
      </trkpt>
      <trkpt lat="44.68189" lon="6.91152">
        <ele>2457.8</ele>
        <time>2021-12-19T15:52:21Z</time>
      </trkpt>
      <trkpt lat="44.68192" lon="6.9112">
        <ele>2451.9</ele>
        <time>2021-12-19T15:53:01Z</time>
      </trkpt>
      <trkpt lat="44.68188" lon="6.91106">
        <ele>2449.6</ele>
        <time>2021-12-19T15:53:06Z</time>
      </trkpt>
      <trkpt lat="44.68179" lon="6.91093">
        <ele>2446.7</ele>
        <time>2021-12-19T15:53:12Z</time>
      </trkpt>
      <trkpt lat="44.68169" lon="6.91092">
        <ele>2444.7</ele>
        <time>2021-12-19T15:53:33Z</time>
      </trkpt>
      <trkpt lat="44.68161" lon="6.91097">
        <ele>2443.7</ele>
        <time>2021-12-19T15:53:37Z</time>
      </trkpt>
      <trkpt lat="44.68164" lon="6.91081">
        <ele>2441.9</ele>
        <time>2021-12-19T15:54:06Z</time>
      </trkpt>
      <trkpt lat="44.68174" lon="6.91065">
        <ele>2440.6</ele>
        <time>2021-12-19T15:54:10Z</time>
      </trkpt>
      <trkpt lat="44.68195" lon="6.91026">
        <ele>2434.9</ele>
        <time>2021-12-19T15:54:25Z</time>
      </trkpt>
      <trkpt lat="44.68199" lon="6.91011">
        <ele>2433.8</ele>
        <time>2021-12-19T15:54:32Z</time>
      </trkpt>
      <trkpt lat="44.68205" lon="6.90965">
        <ele>2428.1</ele>
        <time>2021-12-19T15:55:01Z</time>
      </trkpt>
      <trkpt lat="44.6821" lon="6.90957">
        <ele>2427.9</ele>
        <time>2021-12-19T15:55:13Z</time>
      </trkpt>
      <trkpt lat="44.68218" lon="6.90949">
        <ele>2428.5</ele>
        <time>2021-12-19T15:55:33Z</time>
      </trkpt>
      <trkpt lat="44.68224" lon="6.90936">
        <ele>2428</ele>
        <time>2021-12-19T15:55:40Z</time>
      </trkpt>
      <trkpt lat="44.68235" lon="6.90926">
        <ele>2429.5</ele>
        <time>2021-12-19T15:55:45Z</time>
      </trkpt>
      <trkpt lat="44.68241" lon="6.90909">
        <ele>2428.8</ele>
        <time>2021-12-19T15:55:49Z</time>
      </trkpt>
      <trkpt lat="44.68246" lon="6.90881">
        <ele>2425.8</ele>
        <time>2021-12-19T15:55:57Z</time>
      </trkpt>
      <trkpt lat="44.68256" lon="6.90853">
        <ele>2422.9</ele>
        <time>2021-12-19T15:56:05Z</time>
      </trkpt>
      <trkpt lat="44.6827" lon="6.90836">
        <ele>2421.5</ele>
        <time>2021-12-19T15:56:11Z</time>
      </trkpt>
      <trkpt lat="44.68278" lon="6.90825">
        <ele>2420.6</ele>
        <time>2021-12-19T15:56:13Z</time>
      </trkpt>
      <trkpt lat="44.68281" lon="6.90813">
        <ele>2419.8</ele>
        <time>2021-12-19T15:56:15Z</time>
      </trkpt>
      <trkpt lat="44.68283" lon="6.90803">
        <ele>2419.1</ele>
        <time>2021-12-19T15:56:17Z</time>
      </trkpt>
      <trkpt lat="44.68285" lon="6.90789">
        <ele>2418.9</ele>
        <time>2021-12-19T15:56:22Z</time>
      </trkpt>
      <trkpt lat="44.6829" lon="6.9076">
        <ele>2418</ele>
        <time>2021-12-19T15:56:29Z</time>
      </trkpt>
      <trkpt lat="44.68294" lon="6.90743">
        <ele>2417.6</ele>
        <time>2021-12-19T15:56:32Z</time>
      </trkpt>
      <trkpt lat="44.68298" lon="6.90729">
        <ele>2417.4</ele>
        <time>2021-12-19T15:56:37Z</time>
      </trkpt>
      <trkpt lat="44.68301" lon="6.90676">
        <ele>2410.5</ele>
        <time>2021-12-19T15:57:12Z</time>
      </trkpt>
      <trkpt lat="44.68299" lon="6.90662">
        <ele>2408.7</ele>
        <time>2021-12-19T15:57:16Z</time>
      </trkpt>
      <trkpt lat="44.68297" lon="6.90651">
        <ele>2407.7</ele>
        <time>2021-12-19T15:57:22Z</time>
      </trkpt>
      <trkpt lat="44.68289" lon="6.9063">
        <ele>2404.9</ele>
        <time>2021-12-19T15:58:53Z</time>
      </trkpt>
      <trkpt lat="44.68239" lon="6.90576">
        <ele>2394.4</ele>
        <time>2021-12-19T15:59:12Z</time>
      </trkpt>
      <trkpt lat="44.68235" lon="6.90565">
        <ele>2393.8</ele>
        <time>2021-12-19T15:59:24Z</time>
      </trkpt>
      <trkpt lat="44.68236" lon="6.90553">
        <ele>2393.8</ele>
        <time>2021-12-19T15:59:30Z</time>
      </trkpt>
      <trkpt lat="44.68239" lon="6.90539">
        <ele>2393.2</ele>
        <time>2021-12-19T15:59:35Z</time>
      </trkpt>
      <trkpt lat="44.68239" lon="6.90522">
        <ele>2391.8</ele>
        <time>2021-12-19T15:59:40Z</time>
      </trkpt>
      <trkpt lat="44.68235" lon="6.90513">
        <ele>2390.2</ele>
        <time>2021-12-19T15:59:52Z</time>
      </trkpt>
      <trkpt lat="44.68228" lon="6.90504">
        <ele>2388.3</ele>
        <time>2021-12-19T15:59:56Z</time>
      </trkpt>
      <trkpt lat="44.68212" lon="6.90501">
        <ele>2384.5</ele>
        <time>2021-12-19T16:00:12Z</time>
      </trkpt>
      <trkpt lat="44.68206" lon="6.90508">
        <ele>2383.8</ele>
        <time>2021-12-19T16:00:15Z</time>
      </trkpt>
      <trkpt lat="44.68196" lon="6.90515">
        <ele>2382</ele>
        <time>2021-12-19T16:00:20Z</time>
      </trkpt>
      <trkpt lat="44.68188" lon="6.90517">
        <ele>2380.2</ele>
        <time>2021-12-19T16:00:27Z</time>
      </trkpt>
      <trkpt lat="44.68177" lon="6.90526">
        <ele>2378.4</ele>
        <time>2021-12-19T16:00:31Z</time>
      </trkpt>
      <trkpt lat="44.68161" lon="6.90545">
        <ele>2375.9</ele>
        <time>2021-12-19T16:01:33Z</time>
      </trkpt>
      <trkpt lat="44.68155" lon="6.90534">
        <ele>2373.8</ele>
        <time>2021-12-19T16:01:39Z</time>
      </trkpt>
      <trkpt lat="44.68146" lon="6.90542">
        <ele>2372.2</ele>
        <time>2021-12-19T16:01:56Z</time>
      </trkpt>
      <trkpt lat="44.68141" lon="6.90552">
        <ele>2371.4</ele>
        <time>2021-12-19T16:02:00Z</time>
      </trkpt>
      <trkpt lat="44.68133" lon="6.90564">
        <ele>2370.6</ele>
        <time>2021-12-19T16:02:27Z</time>
      </trkpt>
      <trkpt lat="44.68134" lon="6.90579">
        <ele>2371.2</ele>
        <time>2021-12-19T16:03:08Z</time>
      </trkpt>
      <trkpt lat="44.68129" lon="6.90619">
        <ele>2371.5</ele>
        <time>2021-12-19T16:03:14Z</time>
      </trkpt>
      <trkpt lat="44.68117" lon="6.90617">
        <ele>2369</ele>
        <time>2021-12-19T16:03:18Z</time>
      </trkpt>
      <trkpt lat="44.68109" lon="6.90606">
        <ele>2367.5</ele>
        <time>2021-12-19T16:03:23Z</time>
      </trkpt>
      <trkpt lat="44.68097" lon="6.90584">
        <ele>2364.9</ele>
        <time>2021-12-19T16:04:22Z</time>
      </trkpt>
      <trkpt lat="44.68089" lon="6.90595">
        <ele>2362.9</ele>
        <time>2021-12-19T16:04:26Z</time>
      </trkpt>
      <trkpt lat="44.68083" lon="6.90632">
        <ele>2359.4</ele>
        <time>2021-12-19T16:05:06Z</time>
      </trkpt>
      <trkpt lat="44.68093" lon="6.90641">
        <ele>2361.8</ele>
        <time>2021-12-19T16:05:39Z</time>
      </trkpt>
      <trkpt lat="44.681" lon="6.90646">
        <ele>2363.9</ele>
        <time>2021-12-19T16:05:41Z</time>
      </trkpt>
      <trkpt lat="44.68106" lon="6.90656">
        <ele>2365.9</ele>
        <time>2021-12-19T16:05:43Z</time>
      </trkpt>
      <trkpt lat="44.68101" lon="6.90655">
        <ele>2364.2</ele>
        <time>2021-12-19T16:05:58Z</time>
      </trkpt>
      <trkpt lat="44.68094" lon="6.90648">
        <ele>2362</ele>
        <time>2021-12-19T16:06:01Z</time>
      </trkpt>
      <trkpt lat="44.68088" lon="6.90637">
        <ele>2360.5</ele>
        <time>2021-12-19T16:06:04Z</time>
      </trkpt>
      <trkpt lat="44.68076" lon="6.90629">
        <ele>2357.6</ele>
        <time>2021-12-19T16:06:20Z</time>
      </trkpt>
      <trkpt lat="44.68069" lon="6.90652">
        <ele>2354.4</ele>
        <time>2021-12-19T16:06:35Z</time>
      </trkpt>
      <trkpt lat="44.68064" lon="6.90668">
        <ele>2352.5</ele>
        <time>2021-12-19T16:06:40Z</time>
      </trkpt>
      <trkpt lat="44.6806" lon="6.90684">
        <ele>2352</ele>
        <time>2021-12-19T16:06:44Z</time>
      </trkpt>
      <trkpt lat="44.68058" lon="6.907">
        <ele>2352.2</ele>
        <time>2021-12-19T16:08:24Z</time>
      </trkpt>
      <trkpt lat="44.68054" lon="6.90708">
        <ele>2351.6</ele>
        <time>2021-12-19T16:08:30Z</time>
      </trkpt>
      <trkpt lat="44.68036" lon="6.90715">
        <ele>2348.3</ele>
        <time>2021-12-19T16:08:44Z</time>
      </trkpt>
      <trkpt lat="44.68014" lon="6.9072">
        <ele>2345.8</ele>
        <time>2021-12-19T16:09:08Z</time>
      </trkpt>
      <trkpt lat="44.67973" lon="6.90716">
        <ele>2342.4</ele>
        <time>2021-12-19T16:09:51Z</time>
      </trkpt>
      <trkpt lat="44.67963" lon="6.90709">
        <ele>2340.4</ele>
        <time>2021-12-19T16:10:14Z</time>
      </trkpt>
      <trkpt lat="44.67951" lon="6.90706">
        <ele>2338.6</ele>
        <time>2021-12-19T16:11:13Z</time>
      </trkpt>
      <trkpt lat="44.67945" lon="6.90701">
        <ele>2337.5</ele>
        <time>2021-12-19T16:11:45Z</time>
      </trkpt>
      <trkpt lat="44.67932" lon="6.90683">
        <ele>2333.7</ele>
        <time>2021-12-19T16:11:49Z</time>
      </trkpt>
      <trkpt lat="44.67931" lon="6.90666">
        <ele>2331.9</ele>
        <time>2021-12-19T16:11:53Z</time>
      </trkpt>
      <trkpt lat="44.67933" lon="6.90644">
        <ele>2329.2</ele>
        <time>2021-12-19T16:12:18Z</time>
      </trkpt>
      <trkpt lat="44.67922" lon="6.90592">
        <ele>2324.9</ele>
        <time>2021-12-19T16:12:43Z</time>
      </trkpt>
      <trkpt lat="44.67907" lon="6.90549">
        <ele>2319.4</ele>
        <time>2021-12-19T16:13:00Z</time>
      </trkpt>
      <trkpt lat="44.67902" lon="6.90534">
        <ele>2317.2</ele>
        <time>2021-12-19T16:13:06Z</time>
      </trkpt>
      <trkpt lat="44.67894" lon="6.90525">
        <ele>2315.9</ele>
        <time>2021-12-19T16:13:13Z</time>
      </trkpt>
      <trkpt lat="44.67886" lon="6.90515">
        <ele>2314.1</ele>
        <time>2021-12-19T16:13:20Z</time>
      </trkpt>
      <trkpt lat="44.67878" lon="6.90509">
        <ele>2312.1</ele>
        <time>2021-12-19T16:13:29Z</time>
      </trkpt>
      <trkpt lat="44.6787" lon="6.90495">
        <ele>2309.7</ele>
        <time>2021-12-19T16:13:43Z</time>
      </trkpt>
      <trkpt lat="44.67876" lon="6.90486">
        <ele>2309.3</ele>
        <time>2021-12-19T16:13:48Z</time>
      </trkpt>
      <trkpt lat="44.67884" lon="6.90481">
        <ele>2309.2</ele>
        <time>2021-12-19T16:13:54Z</time>
      </trkpt>
      <trkpt lat="44.67885" lon="6.90466">
        <ele>2307.2</ele>
        <time>2021-12-19T16:14:13Z</time>
      </trkpt>
      <trkpt lat="44.67879" lon="6.90435">
        <ele>2303.4</ele>
        <time>2021-12-19T16:14:40Z</time>
      </trkpt>
      <trkpt lat="44.67872" lon="6.90425">
        <ele>2301.4</ele>
        <time>2021-12-19T16:14:53Z</time>
      </trkpt>
      <trkpt lat="44.67857" lon="6.90414">
        <ele>2298.1</ele>
        <time>2021-12-19T16:15:06Z</time>
      </trkpt>
      <trkpt lat="44.67841" lon="6.90401">
        <ele>2294.4</ele>
        <time>2021-12-19T16:15:15Z</time>
      </trkpt>
      <trkpt lat="44.67833" lon="6.90404">
        <ele>2293.5</ele>
        <time>2021-12-19T16:15:58Z</time>
      </trkpt>
      <trkpt lat="44.67829" lon="6.9039">
        <ele>2290.5</ele>
        <time>2021-12-19T16:16:15Z</time>
      </trkpt>
      <trkpt lat="44.67823" lon="6.90387">
        <ele>2288.1</ele>
        <time>2021-12-19T16:16:42Z</time>
      </trkpt>
      <trkpt lat="44.67836" lon="6.90248">
        <ele>2270.9</ele>
        <time>2021-12-19T16:17:13Z</time>
      </trkpt>
      <trkpt lat="44.67847" lon="6.90225">
        <ele>2267.6</ele>
        <time>2021-12-19T16:17:25Z</time>
      </trkpt>
      <trkpt lat="44.67863" lon="6.90269">
        <ele>2279.3</ele>
        <time>2021-12-19T16:17:46Z</time>
      </trkpt>
      <trkpt lat="44.67867" lon="6.90246">
        <ele>2275.2</ele>
        <time>2021-12-19T16:18:36Z</time>
      </trkpt>
      <trkpt lat="44.67859" lon="6.90239">
        <ele>2272.7</ele>
        <time>2021-12-19T16:19:16Z</time>
      </trkpt>
      <trkpt lat="44.67846" lon="6.90238">
        <ele>2270.2</ele>
        <time>2021-12-19T16:19:28Z</time>
      </trkpt>
      <trkpt lat="44.67834" lon="6.90245">
        <ele>2269.8</ele>
        <time>2021-12-19T16:19:44Z</time>
      </trkpt>
      <trkpt lat="44.67826" lon="6.90255">
        <ele>2270.2</ele>
        <time>2021-12-19T16:20:02Z</time>
      </trkpt>
      <trkpt lat="44.6782" lon="6.90268">
        <ele>2271.5</ele>
        <time>2021-12-19T16:20:27Z</time>
      </trkpt>
      <trkpt lat="44.67814" lon="6.90278">
        <ele>2272.2</ele>
        <time>2021-12-19T16:20:44Z</time>
      </trkpt>
      <trkpt lat="44.67807" lon="6.90289">
        <ele>2272</ele>
        <time>2021-12-19T16:21:00Z</time>
      </trkpt>
      <trkpt lat="44.67799" lon="6.90308">
        <ele>2272.2</ele>
        <time>2021-12-19T16:21:21Z</time>
      </trkpt>
      <trkpt lat="44.6779" lon="6.90319">
        <ele>2270.4</ele>
        <time>2021-12-19T16:21:35Z</time>
      </trkpt>
      <trkpt lat="44.67784" lon="6.90331">
        <ele>2269.3</ele>
        <time>2021-12-19T16:21:56Z</time>
      </trkpt>
      <trkpt lat="44.67783" lon="6.90345">
        <ele>2269.6</ele>
        <time>2021-12-19T16:22:14Z</time>
      </trkpt>
      <trkpt lat="44.67785" lon="6.90362">
        <ele>2271.4</ele>
        <time>2021-12-19T16:23:11Z</time>
      </trkpt>
      <trkpt lat="44.67786" lon="6.90399">
        <ele>2270.8</ele>
        <time>2021-12-19T16:23:43Z</time>
      </trkpt>
      <trkpt lat="44.67787" lon="6.90416">
        <ele>2270.4</ele>
        <time>2021-12-19T16:23:56Z</time>
      </trkpt>
      <trkpt lat="44.67781" lon="6.90431">
        <ele>2266.8</ele>
        <time>2021-12-19T16:24:21Z</time>
      </trkpt>
      <trkpt lat="44.67778" lon="6.90446">
        <ele>2265.2</ele>
        <time>2021-12-19T16:24:31Z</time>
      </trkpt>
      <trkpt lat="44.67782" lon="6.9049">
        <ele>2270.1</ele>
        <time>2021-12-19T16:25:05Z</time>
      </trkpt>
      <trkpt lat="44.67778" lon="6.90547">
        <ele>2268.1</ele>
        <time>2021-12-19T16:25:46Z</time>
      </trkpt>
      <trkpt lat="44.67778" lon="6.90557">
        <ele>2268.1</ele>
        <time>2021-12-19T16:25:55Z</time>
      </trkpt>
      <trkpt lat="44.67778" lon="6.90573">
        <ele>2268.1</ele>
        <time>2021-12-19T16:26:03Z</time>
      </trkpt>
      <trkpt lat="44.6778" lon="6.90583">
        <ele>2269</ele>
        <time>2021-12-19T16:26:09Z</time>
      </trkpt>
      <trkpt lat="44.67777" lon="6.90592">
        <ele>2267.9</ele>
        <time>2021-12-19T16:26:15Z</time>
      </trkpt>
      <trkpt lat="44.67776" lon="6.9063">
        <ele>2268</ele>
        <time>2021-12-19T16:26:42Z</time>
      </trkpt>
      <trkpt lat="44.67779" lon="6.90649">
        <ele>2269.3</ele>
        <time>2021-12-19T16:26:55Z</time>
      </trkpt>
      <trkpt lat="44.6778" lon="6.90703">
        <ele>2268.7</ele>
        <time>2021-12-19T16:27:31Z</time>
      </trkpt>
      <trkpt lat="44.67792" lon="6.90732">
        <ele>2270.7</ele>
        <time>2021-12-19T16:27:57Z</time>
      </trkpt>
      <trkpt lat="44.67799" lon="6.90766">
        <ele>2270.2</ele>
        <time>2021-12-19T16:28:18Z</time>
      </trkpt>
      <trkpt lat="44.67798" lon="6.90784">
        <ele>2270.2</ele>
        <time>2021-12-19T16:28:36Z</time>
      </trkpt>
      <trkpt lat="44.67793" lon="6.90792">
        <ele>2269.2</ele>
        <time>2021-12-19T16:28:43Z</time>
      </trkpt>
      <trkpt lat="44.67788" lon="6.90775">
        <ele>2266.3</ele>
        <time>2021-12-19T16:29:02Z</time>
      </trkpt>
      <trkpt lat="44.67786" lon="6.90823">
        <ele>2268.8</ele>
        <time>2021-12-19T16:29:24Z</time>
      </trkpt>
      <trkpt lat="44.67803" lon="6.90876">
        <ele>2273.7</ele>
        <time>2021-12-19T16:29:58Z</time>
      </trkpt>
      <trkpt lat="44.67813" lon="6.90897">
        <ele>2275.3</ele>
        <time>2021-12-19T16:30:17Z</time>
      </trkpt>
      <trkpt lat="44.67816" lon="6.90906">
        <ele>2275.2</ele>
        <time>2021-12-19T16:30:22Z</time>
      </trkpt>
      <trkpt lat="44.67818" lon="6.90927">
        <ele>2272.6</ele>
        <time>2021-12-19T16:30:38Z</time>
      </trkpt>
      <trkpt lat="44.67814" lon="6.90946">
        <ele>2267.9</ele>
        <time>2021-12-19T16:30:53Z</time>
      </trkpt>
      <trkpt lat="44.67816" lon="6.90963">
        <ele>2268</ele>
        <time>2021-12-19T16:31:05Z</time>
      </trkpt>
      <trkpt lat="44.67818" lon="6.90974">
        <ele>2268.2</ele>
        <time>2021-12-19T16:31:09Z</time>
      </trkpt>
      <trkpt lat="44.67825" lon="6.90985">
        <ele>2270</ele>
        <time>2021-12-19T16:31:16Z</time>
      </trkpt>
      <trkpt lat="44.67833" lon="6.90997">
        <ele>2272.2</ele>
        <time>2021-12-19T16:31:26Z</time>
      </trkpt>
      <trkpt lat="44.67839" lon="6.91009">
        <ele>2272.8</ele>
        <time>2021-12-19T16:31:34Z</time>
      </trkpt>
      <trkpt lat="44.67848" lon="6.91026">
        <ele>2272.8</ele>
        <time>2021-12-19T16:31:50Z</time>
      </trkpt>
      <trkpt lat="44.67864" lon="6.91043">
        <ele>2277.3</ele>
        <time>2021-12-19T16:33:21Z</time>
      </trkpt>
      <trkpt lat="44.67865" lon="6.91042">
        <ele>2278.2</ele>
        <time>2021-12-19T16:34:08Z</time>
      </trkpt>
      <trkpt lat="44.67864" lon="6.9106">
        <ele>2274.7</ele>
        <time>2021-12-19T16:34:48Z</time>
      </trkpt>
      <trkpt lat="44.6787" lon="6.91072">
        <ele>2278.1</ele>
        <time>2021-12-19T16:35:24Z</time>
      </trkpt>
      <trkpt lat="44.67871" lon="6.911">
        <ele>2275.6</ele>
        <time>2021-12-19T16:36:08Z</time>
      </trkpt>
      <trkpt lat="44.67874" lon="6.91103">
        <ele>2278</ele>
        <time>2021-12-19T16:39:07Z</time>
      </trkpt>
      <trkpt lat="44.67879" lon="6.91118">
        <ele>2280.3</ele>
        <time>2021-12-19T16:39:29Z</time>
      </trkpt>
      <trkpt lat="44.67884" lon="6.91129">
        <ele>2282.7</ele>
        <time>2021-12-19T16:41:08Z</time>
      </trkpt>
      <trkpt lat="44.67871" lon="6.91113">
        <ele>2273.9</ele>
        <time>2021-12-19T16:42:55Z</time>
      </trkpt>
      <trkpt lat="44.67871" lon="6.911">
        <ele>2275.6</ele>
        <time>2021-12-19T16:44:16Z</time>
      </trkpt>
      <trkpt lat="44.67869" lon="6.91086">
        <ele>2275.5</ele>
        <time>2021-12-19T16:44:48Z</time>
      </trkpt>
      <trkpt lat="44.67871" lon="6.91073">
        <ele>2278.8</ele>
        <time>2021-12-19T16:45:22Z</time>
      </trkpt>
      <trkpt lat="44.67876" lon="6.91082">
        <ele>2282</ele>
        <time>2021-12-19T16:45:52Z</time>
      </trkpt>
      <trkpt lat="44.67878" lon="6.91099">
        <ele>2282</ele>
        <time>2021-12-19T16:46:00Z</time>
      </trkpt>
      <trkpt lat="44.67883" lon="6.91103">
        <ele>2286.2</ele>
        <time>2021-12-19T16:48:04Z</time>
      </trkpt>
      <trkpt lat="44.67869" lon="6.91081">
        <ele>2276.1</ele>
        <time>2021-12-19T16:48:58Z</time>
      </trkpt>
      <trkpt lat="44.67861" lon="6.91068">
        <ele>2271.1</ele>
        <time>2021-12-19T16:49:39Z</time>
      </trkpt>
      <trkpt lat="44.67849" lon="6.91066">
        <ele>2264.7</ele>
        <time>2021-12-19T16:50:19Z</time>
      </trkpt>
      <trkpt lat="44.67842" lon="6.91077">
        <ele>2258.2</ele>
        <time>2021-12-19T16:51:15Z</time>
      </trkpt>
      <trkpt lat="44.67838" lon="6.91089">
        <ele>2252.9</ele>
        <time>2021-12-19T16:52:04Z</time>
      </trkpt>
      <trkpt lat="44.67829" lon="6.91095">
        <ele>2246.9</ele>
        <time>2021-12-19T16:53:29Z</time>
      </trkpt>
      <trkpt lat="44.67822" lon="6.91107">
        <ele>2241.8</ele>
        <time>2021-12-19T16:54:36Z</time>
      </trkpt>
      <trkpt lat="44.6783" lon="6.91112">
        <ele>2243.7</ele>
        <time>2021-12-19T16:57:23Z</time>
      </trkpt>
      <trkpt lat="44.67838" lon="6.91118">
        <ele>2247.3</ele>
        <time>2021-12-19T17:00:22Z</time>
      </trkpt>
      <trkpt lat="44.67841" lon="6.91132">
        <ele>2247.3</ele>
        <time>2021-12-19T17:00:33Z</time>
      </trkpt>
      <trkpt lat="44.67847" lon="6.91159">
        <ele>2248.6</ele>
        <time>2021-12-19T17:00:51Z</time>
      </trkpt>
      <trkpt lat="44.67846" lon="6.91169">
        <ele>2247.3</ele>
        <time>2021-12-19T17:00:59Z</time>
      </trkpt>
      <trkpt lat="44.6785" lon="6.91198">
        <ele>2249.4</ele>
        <time>2021-12-19T17:01:17Z</time>
      </trkpt>
      <trkpt lat="44.67854" lon="6.9124">
        <ele>2253.5</ele>
        <time>2021-12-19T17:01:48Z</time>
      </trkpt>
      <trkpt lat="44.67859" lon="6.91273">
        <ele>2257.5</ele>
        <time>2021-12-19T17:02:13Z</time>
      </trkpt>
      <trkpt lat="44.67855" lon="6.91323">
        <ele>2258.8</ele>
        <time>2021-12-19T17:02:49Z</time>
      </trkpt>
      <trkpt lat="44.67858" lon="6.91335">
        <ele>2261.3</ele>
        <time>2021-12-19T17:02:56Z</time>
      </trkpt>
      <trkpt lat="44.67858" lon="6.91346">
        <ele>2262.6</ele>
        <time>2021-12-19T17:03:02Z</time>
      </trkpt>
      <trkpt lat="44.67854" lon="6.9136">
        <ele>2262</ele>
        <time>2021-12-19T17:03:14Z</time>
      </trkpt>
      <trkpt lat="44.6783" lon="6.914">
        <ele>2259.4</ele>
        <time>2021-12-19T17:03:47Z</time>
      </trkpt>
      <trkpt lat="44.67826" lon="6.91412">
        <ele>2259.7</ele>
        <time>2021-12-19T17:03:54Z</time>
      </trkpt>
      <trkpt lat="44.67833" lon="6.91422">
        <ele>2264.2</ele>
        <time>2021-12-19T17:04:15Z</time>
      </trkpt>
      <trkpt lat="44.67834" lon="6.91439">
        <ele>2265.9</ele>
        <time>2021-12-19T17:04:28Z</time>
      </trkpt>
      <trkpt lat="44.67832" lon="6.9145">
        <ele>2265.4</ele>
        <time>2021-12-19T17:04:34Z</time>
      </trkpt>
      <trkpt lat="44.67837" lon="6.91465">
        <ele>2267.8</ele>
        <time>2021-12-19T17:04:42Z</time>
      </trkpt>
      <trkpt lat="44.67844" lon="6.91477">
        <ele>2271.1</ele>
        <time>2021-12-19T17:04:50Z</time>
      </trkpt>
      <trkpt lat="44.67846" lon="6.9149">
        <ele>2271.4</ele>
        <time>2021-12-19T17:04:58Z</time>
      </trkpt>
      <trkpt lat="44.67842" lon="6.91503">
        <ele>2269.1</ele>
        <time>2021-12-19T17:05:05Z</time>
      </trkpt>
      <trkpt lat="44.6782" lon="6.91521">
        <ele>2264.5</ele>
        <time>2021-12-19T17:05:37Z</time>
      </trkpt>
      <trkpt lat="44.67815" lon="6.91535">
        <ele>2267</ele>
        <time>2021-12-19T17:05:50Z</time>
      </trkpt>
      <trkpt lat="44.67815" lon="6.91553">
        <ele>2271.7</ele>
        <time>2021-12-19T17:06:02Z</time>
      </trkpt>
      <trkpt lat="44.67809" lon="6.91569">
        <ele>2272.9</ele>
        <time>2021-12-19T17:06:14Z</time>
      </trkpt>
      <trkpt lat="44.67807" lon="6.91586">
        <ele>2275.2</ele>
        <time>2021-12-19T17:06:27Z</time>
      </trkpt>
      <trkpt lat="44.67809" lon="6.91603">
        <ele>2279.5</ele>
        <time>2021-12-19T17:06:38Z</time>
      </trkpt>
      <trkpt lat="44.67805" lon="6.91637">
        <ele>2282.4</ele>
        <time>2021-12-19T17:07:04Z</time>
      </trkpt>
      <trkpt lat="44.67801" lon="6.91653">
        <ele>2282.3</ele>
        <time>2021-12-19T17:07:18Z</time>
      </trkpt>
      <trkpt lat="44.67776" lon="6.91692">
        <ele>2277.1</ele>
        <time>2021-12-19T17:07:42Z</time>
      </trkpt>
      <trkpt lat="44.67767" lon="6.91697">
        <ele>2276.8</ele>
        <time>2021-12-19T17:08:00Z</time>
      </trkpt>
      <trkpt lat="44.67753" lon="6.91715">
        <ele>2278.8</ele>
        <time>2021-12-19T17:08:20Z</time>
      </trkpt>
      <trkpt lat="44.67751" lon="6.91725">
        <ele>2280.8</ele>
        <time>2021-12-19T17:08:44Z</time>
      </trkpt>
      <trkpt lat="44.67744" lon="6.91733">
        <ele>2280.7</ele>
        <time>2021-12-19T17:08:50Z</time>
      </trkpt>
      <trkpt lat="44.67745" lon="6.91744">
        <ele>2283.3</ele>
        <time>2021-12-19T17:09:45Z</time>
      </trkpt>
      <trkpt lat="44.67745" lon="6.91757">
        <ele>2286</ele>
        <time>2021-12-19T17:10:03Z</time>
      </trkpt>
      <trkpt lat="44.67743" lon="6.91773">
        <ele>2288.7</ele>
        <time>2021-12-19T17:10:26Z</time>
      </trkpt>
      <trkpt lat="44.67742" lon="6.91789">
        <ele>2291.8</ele>
        <time>2021-12-19T17:10:45Z</time>
      </trkpt>
      <trkpt lat="44.67742" lon="6.91804">
        <ele>2295.1</ele>
        <time>2021-12-19T17:11:02Z</time>
      </trkpt>
      <trkpt lat="44.67733" lon="6.91818">
        <ele>2295.8</ele>
        <time>2021-12-19T17:11:13Z</time>
      </trkpt>
      <trkpt lat="44.67731" lon="6.91832">
        <ele>2298.8</ele>
        <time>2021-12-19T17:11:33Z</time>
      </trkpt>
      <trkpt lat="44.67723" lon="6.91846">
        <ele>2299.5</ele>
        <time>2021-12-19T17:11:44Z</time>
      </trkpt>
      <trkpt lat="44.67722" lon="6.91864">
        <ele>2303.5</ele>
        <time>2021-12-19T17:12:07Z</time>
      </trkpt>
      <trkpt lat="44.67729" lon="6.91876">
        <ele>2309.2</ele>
        <time>2021-12-19T17:12:25Z</time>
      </trkpt>
      <trkpt lat="44.67728" lon="6.91906">
        <ele>2316.3</ele>
        <time>2021-12-19T17:12:59Z</time>
      </trkpt>
      <trkpt lat="44.67717" lon="6.9192">
        <ele>2314.4</ele>
        <time>2021-12-19T17:13:11Z</time>
      </trkpt>
      <trkpt lat="44.67696" lon="6.91941">
        <ele>2310.7</ele>
        <time>2021-12-19T17:13:31Z</time>
      </trkpt>
      <trkpt lat="44.67687" lon="6.91957">
        <ele>2308.6</ele>
        <time>2021-12-19T17:13:43Z</time>
      </trkpt>
      <trkpt lat="44.6768" lon="6.91963">
        <ele>2305.9</ele>
        <time>2021-12-19T17:13:48Z</time>
      </trkpt>
      <trkpt lat="44.67685" lon="6.91971">
        <ele>2310</ele>
        <time>2021-12-19T17:13:52Z</time>
      </trkpt>
      <trkpt lat="44.67674" lon="6.91973">
        <ele>2304.9</ele>
        <time>2021-12-19T17:14:23Z</time>
      </trkpt>
      <trkpt lat="44.67662" lon="6.91975">
        <ele>2302.3</ele>
        <time>2021-12-19T17:14:34Z</time>
      </trkpt>
      <trkpt lat="44.67648" lon="6.91971">
        <ele>2302</ele>
        <time>2021-12-19T17:14:44Z</time>
      </trkpt>
      <trkpt lat="44.67639" lon="6.91971">
        <ele>2302.6</ele>
        <time>2021-12-19T17:14:48Z</time>
      </trkpt>
      <trkpt lat="44.67626" lon="6.91975">
        <ele>2304.3</ele>
        <time>2021-12-19T17:15:06Z</time>
      </trkpt>
      <trkpt lat="44.67607" lon="6.91994">
        <ele>2309.4</ele>
        <time>2021-12-19T17:15:45Z</time>
      </trkpt>
      <trkpt lat="44.67603" lon="6.92007">
        <ele>2313.1</ele>
        <time>2021-12-19T17:16:10Z</time>
      </trkpt>
      <trkpt lat="44.67613" lon="6.92014">
        <ele>2314.6</ele>
        <time>2021-12-19T17:16:32Z</time>
      </trkpt>
      <trkpt lat="44.67624" lon="6.92013">
        <ele>2314.5</ele>
        <time>2021-12-19T17:16:45Z</time>
      </trkpt>
      <trkpt lat="44.67639" lon="6.9201">
        <ele>2314.2</ele>
        <time>2021-12-19T17:17:00Z</time>
      </trkpt>
      <trkpt lat="44.67647" lon="6.9202">
        <ele>2316.4</ele>
        <time>2021-12-19T17:17:20Z</time>
      </trkpt>
      <trkpt lat="44.67648" lon="6.92037">
        <ele>2320.3</ele>
        <time>2021-12-19T17:17:48Z</time>
      </trkpt>
      <trkpt lat="44.67645" lon="6.9205">
        <ele>2322.7</ele>
        <time>2021-12-19T17:18:18Z</time>
      </trkpt>
      <trkpt lat="44.6763" lon="6.92064">
        <ele>2326.7</ele>
        <time>2021-12-19T17:19:02Z</time>
      </trkpt>
      <trkpt lat="44.67618" lon="6.92069">
        <ele>2329.6</ele>
        <time>2021-12-19T17:20:03Z</time>
      </trkpt>
      <trkpt lat="44.67608" lon="6.92068">
        <ele>2330.6</ele>
        <time>2021-12-19T17:20:42Z</time>
      </trkpt>
      <trkpt lat="44.67597" lon="6.92062">
        <ele>2330.8</ele>
        <time>2021-12-19T17:21:02Z</time>
      </trkpt>
      <trkpt lat="44.67586" lon="6.92063">
        <ele>2333.1</ele>
        <time>2021-12-19T17:21:20Z</time>
      </trkpt>
      <trkpt lat="44.67576" lon="6.9207">
        <ele>2333.5</ele>
        <time>2021-12-19T17:21:40Z</time>
      </trkpt>
      <trkpt lat="44.67573" lon="6.92085">
        <ele>2336</ele>
        <time>2021-12-19T17:21:58Z</time>
      </trkpt>
      <trkpt lat="44.67569" lon="6.921">
        <ele>2337</ele>
        <time>2021-12-19T17:22:13Z</time>
      </trkpt>
      <trkpt lat="44.67565" lon="6.92123">
        <ele>2338.7</ele>
        <time>2021-12-19T17:22:39Z</time>
      </trkpt>
      <trkpt lat="44.67551" lon="6.92159">
        <ele>2338</ele>
        <time>2021-12-19T17:23:10Z</time>
      </trkpt>
      <trkpt lat="44.67547" lon="6.92173">
        <ele>2337.9</ele>
        <time>2021-12-19T17:23:18Z</time>
      </trkpt>
      <trkpt lat="44.67545" lon="6.92201">
        <ele>2338.8</ele>
        <time>2021-12-19T17:23:35Z</time>
      </trkpt>
      <trkpt lat="44.6754" lon="6.92214">
        <ele>2338.1</ele>
        <time>2021-12-19T17:23:43Z</time>
      </trkpt>
      <trkpt lat="44.67531" lon="6.92222">
        <ele>2337.3</ele>
        <time>2021-12-19T17:23:51Z</time>
      </trkpt>
      <trkpt lat="44.6752" lon="6.92231">
        <ele>2338.4</ele>
        <time>2021-12-19T17:24:07Z</time>
      </trkpt>
      <trkpt lat="44.675" lon="6.92241">
        <ele>2339.4</ele>
        <time>2021-12-19T17:24:20Z</time>
      </trkpt>
      <trkpt lat="44.67493" lon="6.92241">
        <ele>2340.9</ele>
        <time>2021-12-19T17:24:26Z</time>
      </trkpt>
      <trkpt lat="44.67485" lon="6.92227">
        <ele>2342</ele>
        <time>2021-12-19T17:24:44Z</time>
      </trkpt>
      <trkpt lat="44.67484" lon="6.92211">
        <ele>2341.4</ele>
        <time>2021-12-19T17:25:48Z</time>
      </trkpt>
      <trkpt lat="44.67479" lon="6.92196">
        <ele>2341.6</ele>
        <time>2021-12-19T17:26:05Z</time>
      </trkpt>
      <trkpt lat="44.67477" lon="6.92201">
        <ele>2342.4</ele>
        <time>2021-12-19T17:26:26Z</time>
      </trkpt>
      <trkpt lat="44.67472" lon="6.92185">
        <ele>2342.1</ele>
        <time>2021-12-19T17:26:38Z</time>
      </trkpt>
      <trkpt lat="44.67456" lon="6.92172">
        <ele>2345.5</ele>
        <time>2021-12-19T17:26:50Z</time>
      </trkpt>
      <trkpt lat="44.67449" lon="6.92168">
        <ele>2346.9</ele>
        <time>2021-12-19T17:26:59Z</time>
      </trkpt>
      <trkpt lat="44.6744" lon="6.92158">
        <ele>2347.1</ele>
        <time>2021-12-19T17:27:26Z</time>
      </trkpt>
      <trkpt lat="44.6743" lon="6.92152">
        <ele>2348.5</ele>
        <time>2021-12-19T17:27:41Z</time>
      </trkpt>
      <trkpt lat="44.67407" lon="6.92149">
        <ele>2353.5</ele>
        <time>2021-12-19T17:28:14Z</time>
      </trkpt>
      <trkpt lat="44.6739" lon="6.92149">
        <ele>2357</ele>
        <time>2021-12-19T17:28:45Z</time>
      </trkpt>
      <trkpt lat="44.67381" lon="6.92147">
        <ele>2357.3</ele>
        <time>2021-12-19T17:28:54Z</time>
      </trkpt>
      <trkpt lat="44.67368" lon="6.92152">
        <ele>2360.1</ele>
        <time>2021-12-19T17:29:14Z</time>
      </trkpt>
      <trkpt lat="44.67357" lon="6.92155">
        <ele>2361.9</ele>
        <time>2021-12-19T17:29:43Z</time>
      </trkpt>
      <trkpt lat="44.67347" lon="6.92157">
        <ele>2362.7</ele>
        <time>2021-12-19T17:30:00Z</time>
      </trkpt>
      <trkpt lat="44.67335" lon="6.92157">
        <ele>2362.8</ele>
        <time>2021-12-19T17:30:28Z</time>
      </trkpt>
      <trkpt lat="44.6732" lon="6.92172">
        <ele>2365.7</ele>
        <time>2021-12-19T17:30:52Z</time>
      </trkpt>
      <trkpt lat="44.67304" lon="6.92193">
        <ele>2369.4</ele>
        <time>2021-12-19T17:31:27Z</time>
      </trkpt>
      <trkpt lat="44.67296" lon="6.92206">
        <ele>2371.8</ele>
        <time>2021-12-19T17:31:49Z</time>
      </trkpt>
      <trkpt lat="44.67279" lon="6.92224">
        <ele>2373.7</ele>
        <time>2021-12-19T17:32:18Z</time>
      </trkpt>
      <trkpt lat="44.67271" lon="6.92235">
        <ele>2375.5</ele>
        <time>2021-12-19T17:32:37Z</time>
      </trkpt>
      <trkpt lat="44.67261" lon="6.9224">
        <ele>2375.8</ele>
        <time>2021-12-19T17:32:54Z</time>
      </trkpt>
      <trkpt lat="44.67252" lon="6.92248">
        <ele>2377.5</ele>
        <time>2021-12-19T17:33:25Z</time>
      </trkpt>
      <trkpt lat="44.67244" lon="6.92258">
        <ele>2379.8</ele>
        <time>2021-12-19T17:35:03Z</time>
      </trkpt>
      <trkpt lat="44.67237" lon="6.9226">
        <ele>2380.1</ele>
        <time>2021-12-19T17:35:23Z</time>
      </trkpt>
      <trkpt lat="44.67229" lon="6.92259">
        <ele>2379.5</ele>
        <time>2021-12-19T17:35:29Z</time>
      </trkpt>
      <trkpt lat="44.67229" lon="6.92265">
        <ele>2381</ele>
        <time>2021-12-19T17:35:52Z</time>
      </trkpt>
      <trkpt lat="44.67225" lon="6.92278">
        <ele>2384.1</ele>
        <time>2021-12-19T17:36:23Z</time>
      </trkpt>
      <trkpt lat="44.67219" lon="6.92287">
        <ele>2385.5</ele>
        <time>2021-12-19T17:36:43Z</time>
      </trkpt>
      <trkpt lat="44.6721" lon="6.92292">
        <ele>2386.4</ele>
        <time>2021-12-19T17:37:15Z</time>
      </trkpt>
      <trkpt lat="44.67195" lon="6.92316">
        <ele>2390.3</ele>
        <time>2021-12-19T17:38:04Z</time>
      </trkpt>
      <trkpt lat="44.67187" lon="6.92326">
        <ele>2392</ele>
        <time>2021-12-19T17:39:12Z</time>
      </trkpt>
      <trkpt lat="44.67177" lon="6.9233">
        <ele>2394.3</ele>
        <time>2021-12-19T17:39:25Z</time>
      </trkpt>
      <trkpt lat="44.67169" lon="6.92341">
        <ele>2395.4</ele>
        <time>2021-12-19T17:39:41Z</time>
      </trkpt>
      <trkpt lat="44.67151" lon="6.92361">
        <ele>2398.6</ele>
        <time>2021-12-19T17:40:17Z</time>
      </trkpt>
      <trkpt lat="44.67141" lon="6.92366">
        <ele>2401.2</ele>
        <time>2021-12-19T17:40:40Z</time>
      </trkpt>
      <trkpt lat="44.67133" lon="6.92377">
        <ele>2400.8</ele>
        <time>2021-12-19T17:41:01Z</time>
      </trkpt>
      <trkpt lat="44.67124" lon="6.92379">
        <ele>2402.4</ele>
        <time>2021-12-19T17:41:32Z</time>
      </trkpt>
      <trkpt lat="44.67095" lon="6.92383">
        <ele>2406.6</ele>
        <time>2021-12-19T17:42:08Z</time>
      </trkpt>
      <trkpt lat="44.67083" lon="6.92389">
        <ele>2407</ele>
        <time>2021-12-19T17:42:24Z</time>
      </trkpt>
      <trkpt lat="44.67063" lon="6.92405">
        <ele>2407.8</ele>
        <time>2021-12-19T17:43:18Z</time>
      </trkpt>
      <trkpt lat="44.67044" lon="6.92421">
        <ele>2408.8</ele>
        <time>2021-12-19T17:43:53Z</time>
      </trkpt>
      <trkpt lat="44.67028" lon="6.92443">
        <ele>2411</ele>
        <time>2021-12-19T17:44:50Z</time>
      </trkpt>
      <trkpt lat="44.67019" lon="6.92452">
        <ele>2412.2</ele>
        <time>2021-12-19T17:45:04Z</time>
      </trkpt>
      <trkpt lat="44.6701" lon="6.92464">
        <ele>2413</ele>
        <time>2021-12-19T17:46:39Z</time>
      </trkpt>
      <trkpt lat="44.67002" lon="6.9247">
        <ele>2413.9</ele>
        <time>2021-12-19T17:47:17Z</time>
      </trkpt>
      <trkpt lat="44.66985" lon="6.92489">
        <ele>2415.5</ele>
        <time>2021-12-19T17:47:47Z</time>
      </trkpt>
      <trkpt lat="44.66975" lon="6.92499">
        <ele>2416.6</ele>
        <time>2021-12-19T17:48:02Z</time>
      </trkpt>
      <trkpt lat="44.66965" lon="6.92504">
        <ele>2418.1</ele>
        <time>2021-12-19T17:48:24Z</time>
      </trkpt>
      <trkpt lat="44.66958" lon="6.92511">
        <ele>2419</ele>
        <time>2021-12-19T17:48:35Z</time>
      </trkpt>
      <trkpt lat="44.66946" lon="6.92521">
        <ele>2420.3</ele>
        <time>2021-12-19T17:48:53Z</time>
      </trkpt>
      <trkpt lat="44.66944" lon="6.92532">
        <ele>2419.9</ele>
        <time>2021-12-19T17:49:47Z</time>
      </trkpt>
      <trkpt lat="44.66938" lon="6.92545">
        <ele>2420.4</ele>
        <time>2021-12-19T17:49:55Z</time>
      </trkpt>
      <trkpt lat="44.66931" lon="6.92552">
        <ele>2421.4</ele>
        <time>2021-12-19T17:50:03Z</time>
      </trkpt>
      <trkpt lat="44.66924" lon="6.9257">
        <ele>2423.1</ele>
        <time>2021-12-19T17:50:24Z</time>
      </trkpt>
      <trkpt lat="44.66921" lon="6.9259">
        <ele>2424.2</ele>
        <time>2021-12-19T17:50:43Z</time>
      </trkpt>
      <trkpt lat="44.66921" lon="6.92607">
        <ele>2424.7</ele>
        <time>2021-12-19T17:50:51Z</time>
      </trkpt>
      <trkpt lat="44.66931" lon="6.92645">
        <ele>2427.1</ele>
        <time>2021-12-19T17:51:27Z</time>
      </trkpt>
      <trkpt lat="44.66936" lon="6.92676">
        <ele>2431</ele>
        <time>2021-12-19T17:52:09Z</time>
      </trkpt>
      <trkpt lat="44.66931" lon="6.92689">
        <ele>2431.8</ele>
        <time>2021-12-19T17:52:17Z</time>
      </trkpt>
      <trkpt lat="44.66911" lon="6.92729">
        <ele>2433.6</ele>
        <time>2021-12-19T17:53:01Z</time>
      </trkpt>
      <trkpt lat="44.66905" lon="6.92744">
        <ele>2433.9</ele>
        <time>2021-12-19T17:53:17Z</time>
      </trkpt>
      <trkpt lat="44.66893" lon="6.92773">
        <ele>2435.4</ele>
        <time>2021-12-19T17:53:47Z</time>
      </trkpt>
      <trkpt lat="44.66885" lon="6.92792">
        <ele>2436.1</ele>
        <time>2021-12-19T17:54:00Z</time>
      </trkpt>
      <trkpt lat="44.66871" lon="6.92824">
        <ele>2437.6</ele>
        <time>2021-12-19T17:54:34Z</time>
      </trkpt>
      <trkpt lat="44.66865" lon="6.92837">
        <ele>2438.1</ele>
        <time>2021-12-19T17:54:47Z</time>
      </trkpt>
      <trkpt lat="44.6685" lon="6.92865">
        <ele>2439</ele>
        <time>2021-12-19T17:55:16Z</time>
      </trkpt>
      <trkpt lat="44.66831" lon="6.92909">
        <ele>2441.6</ele>
        <time>2021-12-19T17:55:59Z</time>
      </trkpt>
      <trkpt lat="44.66825" lon="6.92923">
        <ele>2441.9</ele>
        <time>2021-12-19T17:56:14Z</time>
      </trkpt>
      <trkpt lat="44.66822" lon="6.92935">
        <ele>2441.7</ele>
        <time>2021-12-19T17:56:21Z</time>
      </trkpt>
      <trkpt lat="44.66816" lon="6.92947">
        <ele>2441.7</ele>
        <time>2021-12-19T17:56:30Z</time>
      </trkpt>
      <trkpt lat="44.66811" lon="6.9296">
        <ele>2441.3</ele>
        <time>2021-12-19T17:56:38Z</time>
      </trkpt>
      <trkpt lat="44.66797" lon="6.92979">
        <ele>2441.7</ele>
        <time>2021-12-19T17:56:55Z</time>
      </trkpt>
      <trkpt lat="44.66789" lon="6.92995">
        <ele>2441.3</ele>
        <time>2021-12-19T17:57:15Z</time>
      </trkpt>
      <trkpt lat="44.66785" lon="6.93004">
        <ele>2440.9</ele>
        <time>2021-12-19T17:57:25Z</time>
      </trkpt>
      <trkpt lat="44.66777" lon="6.93012">
        <ele>2441.2</ele>
        <time>2021-12-19T17:57:34Z</time>
      </trkpt>
      <trkpt lat="44.6677" lon="6.93023">
        <ele>2441</ele>
        <time>2021-12-19T17:57:42Z</time>
      </trkpt>
      <trkpt lat="44.66765" lon="6.93033">
        <ele>2440.5</ele>
        <time>2021-12-19T17:57:51Z</time>
      </trkpt>
      <trkpt lat="44.66759" lon="6.93039">
        <ele>2440.5</ele>
        <time>2021-12-19T17:57:59Z</time>
      </trkpt>
      <trkpt lat="44.66747" lon="6.93057">
        <ele>2440.2</ele>
        <time>2021-12-19T17:58:14Z</time>
      </trkpt>
      <trkpt lat="44.66723" lon="6.93091">
        <ele>2439.7</ele>
        <time>2021-12-19T17:58:54Z</time>
      </trkpt>
      <trkpt lat="44.66702" lon="6.93115">
        <ele>2439.4</ele>
        <time>2021-12-19T17:59:19Z</time>
      </trkpt>
      <trkpt lat="44.66697" lon="6.93125">
        <ele>2438.9</ele>
        <time>2021-12-19T17:59:28Z</time>
      </trkpt>
      <trkpt lat="44.66691" lon="6.93132">
        <ele>2438.7</ele>
        <time>2021-12-19T17:59:35Z</time>
      </trkpt>
      <trkpt lat="44.66677" lon="6.93163">
        <ele>2439.3</ele>
        <time>2021-12-19T17:59:58Z</time>
      </trkpt>
      <trkpt lat="44.6667" lon="6.93193">
        <ele>2440.7</ele>
        <time>2021-12-19T18:00:29Z</time>
      </trkpt>
      <trkpt lat="44.66661" lon="6.93222">
        <ele>2442.8</ele>
        <time>2021-12-19T18:01:03Z</time>
      </trkpt>
      <trkpt lat="44.66649" lon="6.93265">
        <ele>2444.7</ele>
        <time>2021-12-19T18:01:41Z</time>
      </trkpt>
      <trkpt lat="44.66638" lon="6.93307">
        <ele>2446.1</ele>
        <time>2021-12-19T18:02:20Z</time>
      </trkpt>
      <trkpt lat="44.66628" lon="6.93338">
        <ele>2447.6</ele>
        <time>2021-12-19T18:02:52Z</time>
      </trkpt>
      <trkpt lat="44.66617" lon="6.93372">
        <ele>2449.1</ele>
        <time>2021-12-19T18:03:22Z</time>
      </trkpt>
      <trkpt lat="44.66607" lon="6.93401">
        <ele>2450.9</ele>
        <time>2021-12-19T18:03:54Z</time>
      </trkpt>
      <trkpt lat="44.66598" lon="6.93432">
        <ele>2452.8</ele>
        <time>2021-12-19T18:04:44Z</time>
      </trkpt>
      <trkpt lat="44.6659" lon="6.93463">
        <ele>2454.1</ele>
        <time>2021-12-19T18:05:16Z</time>
      </trkpt>
      <trkpt lat="44.66579" lon="6.93502">
        <ele>2454.9</ele>
        <time>2021-12-19T18:05:39Z</time>
      </trkpt>
      <trkpt lat="44.66584" lon="6.93551">
        <ele>2460.2</ele>
        <time>2021-12-19T18:06:17Z</time>
      </trkpt>
      <trkpt lat="44.66584" lon="6.93567">
        <ele>2462.2</ele>
        <time>2021-12-19T18:06:42Z</time>
      </trkpt>
      <trkpt lat="44.66578" lon="6.93579">
        <ele>2463.3</ele>
        <time>2021-12-19T18:07:00Z</time>
      </trkpt>
      <trkpt lat="44.66575" lon="6.93594">
        <ele>2465</ele>
        <time>2021-12-19T18:07:32Z</time>
      </trkpt>
      <trkpt lat="44.66564" lon="6.93615">
        <ele>2467.4</ele>
        <time>2021-12-19T18:08:02Z</time>
      </trkpt>
      <trkpt lat="44.66556" lon="6.93629">
        <ele>2468.9</ele>
        <time>2021-12-19T18:08:16Z</time>
      </trkpt>
      <trkpt lat="44.66555" lon="6.93645">
        <ele>2471.1</ele>
        <time>2021-12-19T18:08:38Z</time>
      </trkpt>
      <trkpt lat="44.66549" lon="6.93657">
        <ele>2473.3</ele>
        <time>2021-12-19T18:09:00Z</time>
      </trkpt>
      <trkpt lat="44.66545" lon="6.93671">
        <ele>2475.4</ele>
        <time>2021-12-19T18:09:17Z</time>
      </trkpt>
      <trkpt lat="44.66545" lon="6.93686">
        <ele>2476.8</ele>
        <time>2021-12-19T18:09:33Z</time>
      </trkpt>
      <trkpt lat="44.66547" lon="6.93699">
        <ele>2478.1</ele>
        <time>2021-12-19T18:10:39Z</time>
      </trkpt>
      <trkpt lat="44.6654" lon="6.93722">
        <ele>2479.9</ele>
        <time>2021-12-19T18:11:05Z</time>
      </trkpt>
      <trkpt lat="44.66539" lon="6.93738">
        <ele>2480.3</ele>
        <time>2021-12-19T18:11:38Z</time>
      </trkpt>
      <trkpt lat="44.66547" lon="6.9375">
        <ele>2480.3</ele>
        <time>2021-12-19T18:11:55Z</time>
      </trkpt>
      <trkpt lat="44.66566" lon="6.93783">
        <ele>2479.1</ele>
        <time>2021-12-19T18:12:12Z</time>
      </trkpt>
      <trkpt lat="44.66569" lon="6.93793">
        <ele>2479.3</ele>
        <time>2021-12-19T18:13:28Z</time>
      </trkpt>
      <trkpt lat="44.6658" lon="6.93812">
        <ele>2479.1</ele>
        <time>2021-12-19T18:13:40Z</time>
      </trkpt>
      <trkpt lat="44.66587" lon="6.93839">
        <ele>2479</ele>
        <time>2021-12-19T18:13:54Z</time>
      </trkpt>
      <trkpt lat="44.66588" lon="6.93856">
        <ele>2479.5</ele>
        <time>2021-12-19T18:14:10Z</time>
      </trkpt>
      <trkpt lat="44.66585" lon="6.93867">
        <ele>2479.9</ele>
        <time>2021-12-19T18:14:18Z</time>
      </trkpt>
      <trkpt lat="44.66579" lon="6.9388">
        <ele>2480.2</ele>
        <time>2021-12-19T18:14:35Z</time>
      </trkpt>
      <trkpt lat="44.66575" lon="6.93896">
        <ele>2480.6</ele>
        <time>2021-12-19T18:14:54Z</time>
      </trkpt>
      <trkpt lat="44.66566" lon="6.93912">
        <ele>2481.5</ele>
        <time>2021-12-19T18:15:12Z</time>
      </trkpt>
      <trkpt lat="44.66566" lon="6.93935">
        <ele>2483.9</ele>
        <time>2021-12-19T18:15:26Z</time>
      </trkpt>
      <trkpt lat="44.66563" lon="6.93951">
        <ele>2485.7</ele>
        <time>2021-12-19T18:15:43Z</time>
      </trkpt>
      <trkpt lat="44.66557" lon="6.93964">
        <ele>2486.4</ele>
        <time>2021-12-19T18:15:59Z</time>
      </trkpt>
      <trkpt lat="44.66556" lon="6.93996">
        <ele>2489.7</ele>
        <time>2021-12-19T18:16:36Z</time>
      </trkpt>
      <trkpt lat="44.66553" lon="6.94027">
        <ele>2492.6</ele>
        <time>2021-12-19T18:17:34Z</time>
      </trkpt>
      <trkpt lat="44.66551" lon="6.9404">
        <ele>2493.5</ele>
        <time>2021-12-19T18:17:52Z</time>
      </trkpt>
      <trkpt lat="44.66548" lon="6.94054">
        <ele>2494.3</ele>
        <time>2021-12-19T18:18:15Z</time>
      </trkpt>
      <trkpt lat="44.66544" lon="6.94068">
        <ele>2495.1</ele>
        <time>2021-12-19T18:18:57Z</time>
      </trkpt>
      <trkpt lat="44.66533" lon="6.94095">
        <ele>2495.7</ele>
        <time>2021-12-19T18:19:35Z</time>
      </trkpt>
      <trkpt lat="44.66538" lon="6.94109">
        <ele>2496.3</ele>
        <time>2021-12-19T18:19:57Z</time>
      </trkpt>
      <trkpt lat="44.66546" lon="6.94108">
        <ele>2496.6</ele>
        <time>2021-12-19T18:20:06Z</time>
      </trkpt>
      <trkpt lat="44.66557" lon="6.94104">
        <ele>2497</ele>
        <time>2021-12-19T18:20:13Z</time>
      </trkpt>
      <trkpt lat="44.66571" lon="6.94089">
        <ele>2497.4</ele>
        <time>2021-12-19T18:20:28Z</time>
      </trkpt>
      <trkpt lat="44.66588" lon="6.94077">
        <ele>2498.5</ele>
        <time>2021-12-19T18:20:54Z</time>
      </trkpt>
      <trkpt lat="44.66599" lon="6.94053">
        <ele>2500.8</ele>
        <time>2021-12-19T18:21:31Z</time>
      </trkpt>
      <trkpt lat="44.66608" lon="6.94042">
        <ele>2502.2</ele>
        <time>2021-12-19T18:22:03Z</time>
      </trkpt>
      <trkpt lat="44.66618" lon="6.94036">
        <ele>2503.2</ele>
        <time>2021-12-19T18:22:25Z</time>
      </trkpt>
      <trkpt lat="44.66629" lon="6.94041">
        <ele>2502.9</ele>
        <time>2021-12-19T18:22:44Z</time>
      </trkpt>
      <trkpt lat="44.66641" lon="6.94037">
        <ele>2502.8</ele>
        <time>2021-12-19T18:23:28Z</time>
      </trkpt>
      <trkpt lat="44.66655" lon="6.94015">
        <ele>2497.5</ele>
        <time>2021-12-19T18:23:51Z</time>
      </trkpt>
      <trkpt lat="44.66659" lon="6.94001">
        <ele>2494.4</ele>
        <time>2021-12-19T18:23:56Z</time>
      </trkpt>
    </trkseg>
  </trk>
</gpx>